<?xml version="1.0" encoding="UTF-8" standalone="no" ?>
<gpx xmlns="http://www.topografix.com/GPX/1/1" xmlns:xsi="http://www.w3.org/2001/XMLSchema-instance" xsi:schemaLocation="http://www.topografix.com/GPX/1/1 http://www.topografix.com/GPX/1/1/gpx.xsd" version="1.1" creator="VisuGPX - https://www.visugpx.com">
  <metadata>
    <name>Rocamadour</name>
  </metadata>
  <trk>
    <name><![CDATA[Rocamadour_1]]></name>
    <trkseg>
      <trkpt lat="44.8047" lon="1.62339">
        <ele>257.2</ele>
        <time>2020-10-24T09:21:07Z</time>
      </trkpt>
      <trkpt lat="44.8047" lon="1.62337">
        <ele>257.4</ele>
        <time>2020-10-24T09:21:09Z</time>
      </trkpt>
      <trkpt lat="44.80468" lon="1.6233">
        <ele>256.6</ele>
        <time>2020-10-24T09:21:14Z</time>
      </trkpt>
      <trkpt lat="44.80468" lon="1.6233">
        <ele>256.8</ele>
        <time>2020-10-24T09:21:16Z</time>
      </trkpt>
      <trkpt lat="44.80467" lon="1.62326">
        <ele>257.2</ele>
        <time>2020-10-24T09:21:28Z</time>
      </trkpt>
      <trkpt lat="44.80464" lon="1.62321">
        <ele>256.6</ele>
        <time>2020-10-24T09:21:35Z</time>
      </trkpt>
      <trkpt lat="44.80463" lon="1.6232">
        <ele>257.4</ele>
        <time>2020-10-24T09:21:47Z</time>
      </trkpt>
      <trkpt lat="44.80463" lon="1.62314">
        <ele>256.6</ele>
        <time>2020-10-24T09:21:58Z</time>
      </trkpt>
      <trkpt lat="44.80458" lon="1.62293">
        <ele>256.8</ele>
        <time>2020-10-24T09:22:11Z</time>
      </trkpt>
      <trkpt lat="44.80456" lon="1.62279">
        <ele>257.2</ele>
        <time>2020-10-24T09:22:19Z</time>
      </trkpt>
      <trkpt lat="44.80452" lon="1.62258">
        <ele>257.4</ele>
        <time>2020-10-24T09:22:32Z</time>
      </trkpt>
      <trkpt lat="44.80449" lon="1.62246">
        <ele>257.4</ele>
        <time>2020-10-24T09:22:40Z</time>
      </trkpt>
      <trkpt lat="44.80444" lon="1.62232">
        <ele>257.8</ele>
        <time>2020-10-24T09:22:49Z</time>
      </trkpt>
      <trkpt lat="44.8044" lon="1.62224">
        <ele>258</ele>
        <time>2020-10-24T09:22:55Z</time>
      </trkpt>
      <trkpt lat="44.80437" lon="1.62221">
        <ele>258.2</ele>
        <time>2020-10-24T09:22:58Z</time>
      </trkpt>
      <trkpt lat="44.80432" lon="1.62213">
        <ele>258.4</ele>
        <time>2020-10-24T09:23:06Z</time>
      </trkpt>
      <trkpt lat="44.80431" lon="1.62213">
        <ele>258.4</ele>
        <time>2020-10-24T09:23:09Z</time>
      </trkpt>
      <trkpt lat="44.8043" lon="1.62218">
        <ele>257.8</ele>
        <time>2020-10-24T09:23:13Z</time>
      </trkpt>
      <trkpt lat="44.80429" lon="1.62222">
        <ele>257.6</ele>
        <time>2020-10-24T09:23:22Z</time>
      </trkpt>
      <trkpt lat="44.80429" lon="1.62217">
        <ele>257.6</ele>
        <time>2020-10-24T09:23:34Z</time>
      </trkpt>
      <trkpt lat="44.8043" lon="1.62207">
        <ele>257.6</ele>
        <time>2020-10-24T09:23:45Z</time>
      </trkpt>
      <trkpt lat="44.80423" lon="1.62194">
        <ele>257.6</ele>
        <time>2020-10-24T09:23:56Z</time>
      </trkpt>
      <trkpt lat="44.8042" lon="1.62185">
        <ele>259.2</ele>
        <time>2020-10-24T09:24:02Z</time>
      </trkpt>
      <trkpt lat="44.80417" lon="1.62178">
        <ele>259.2</ele>
        <time>2020-10-24T09:24:08Z</time>
      </trkpt>
      <trkpt lat="44.8041" lon="1.62166">
        <ele>259.8</ele>
        <time>2020-10-24T09:24:19Z</time>
      </trkpt>
      <trkpt lat="44.80401" lon="1.62152">
        <ele>260.2</ele>
        <time>2020-10-24T09:24:30Z</time>
      </trkpt>
      <trkpt lat="44.80398" lon="1.62149">
        <ele>260.2</ele>
        <time>2020-10-24T09:24:35Z</time>
      </trkpt>
      <trkpt lat="44.80397" lon="1.62149">
        <ele>260.2</ele>
        <time>2020-10-24T09:24:36Z</time>
      </trkpt>
      <trkpt lat="44.80397" lon="1.6215">
        <ele>260.2</ele>
        <time>2020-10-24T09:24:39Z</time>
      </trkpt>
      <trkpt lat="44.80397" lon="1.6215">
        <ele>261</ele>
        <time>2020-10-24T09:24:44Z</time>
      </trkpt>
      <trkpt lat="44.80395" lon="1.62144">
        <ele>260.6</ele>
        <time>2020-10-24T09:24:51Z</time>
      </trkpt>
      <trkpt lat="44.80391" lon="1.62131">
        <ele>260.4</ele>
        <time>2020-10-24T09:25:01Z</time>
      </trkpt>
      <trkpt lat="44.80382" lon="1.62109">
        <ele>260.6</ele>
        <time>2020-10-24T09:25:16Z</time>
      </trkpt>
      <trkpt lat="44.80372" lon="1.62088">
        <ele>261.2</ele>
        <time>2020-10-24T09:25:29Z</time>
      </trkpt>
      <trkpt lat="44.80371" lon="1.62087">
        <ele>261.2</ele>
        <time>2020-10-24T09:25:30Z</time>
      </trkpt>
      <trkpt lat="44.80365" lon="1.62079">
        <ele>261.2</ele>
        <time>2020-10-24T09:25:37Z</time>
      </trkpt>
      <trkpt lat="44.80363" lon="1.62075">
        <ele>261.2</ele>
        <time>2020-10-24T09:25:40Z</time>
      </trkpt>
      <trkpt lat="44.8036" lon="1.62069">
        <ele>261.2</ele>
        <time>2020-10-24T09:25:44Z</time>
      </trkpt>
      <trkpt lat="44.80354" lon="1.62061">
        <ele>261.2</ele>
        <time>2020-10-24T09:25:52Z</time>
      </trkpt>
      <trkpt lat="44.80347" lon="1.62051">
        <ele>260.8</ele>
        <time>2020-10-24T09:26:00Z</time>
      </trkpt>
      <trkpt lat="44.80344" lon="1.62037">
        <ele>261.2</ele>
        <time>2020-10-24T09:26:09Z</time>
      </trkpt>
      <trkpt lat="44.80343" lon="1.62033">
        <ele>261.4</ele>
        <time>2020-10-24T09:26:12Z</time>
      </trkpt>
      <trkpt lat="44.80339" lon="1.62029">
        <ele>261.6</ele>
        <time>2020-10-24T09:26:16Z</time>
      </trkpt>
      <trkpt lat="44.8033" lon="1.62021">
        <ele>261.4</ele>
        <time>2020-10-24T09:26:24Z</time>
      </trkpt>
      <trkpt lat="44.80321" lon="1.62013">
        <ele>261</ele>
        <time>2020-10-24T09:26:32Z</time>
      </trkpt>
      <trkpt lat="44.80312" lon="1.62005">
        <ele>260.4</ele>
        <time>2020-10-24T09:26:41Z</time>
      </trkpt>
      <trkpt lat="44.80306" lon="1.62">
        <ele>260.2</ele>
        <time>2020-10-24T09:26:47Z</time>
      </trkpt>
      <trkpt lat="44.80304" lon="1.61997">
        <ele>259.8</ele>
        <time>2020-10-24T09:26:50Z</time>
      </trkpt>
      <trkpt lat="44.80302" lon="1.61995">
        <ele>259.2</ele>
        <time>2020-10-24T09:26:53Z</time>
      </trkpt>
      <trkpt lat="44.80295" lon="1.6199">
        <ele>258.8</ele>
        <time>2020-10-24T09:26:59Z</time>
      </trkpt>
      <trkpt lat="44.80295" lon="1.6199">
        <ele>258.6</ele>
        <time>2020-10-24T09:27:00Z</time>
      </trkpt>
      <trkpt lat="44.80292" lon="1.61988">
        <ele>258</ele>
        <time>2020-10-24T09:27:03Z</time>
      </trkpt>
      <trkpt lat="44.80285" lon="1.61985">
        <ele>257.4</ele>
        <time>2020-10-24T09:27:10Z</time>
      </trkpt>
      <trkpt lat="44.80281" lon="1.61983">
        <ele>257</ele>
        <time>2020-10-24T09:27:14Z</time>
      </trkpt>
      <trkpt lat="44.80275" lon="1.61981">
        <ele>256.8</ele>
        <time>2020-10-24T09:27:19Z</time>
      </trkpt>
      <trkpt lat="44.80273" lon="1.61982">
        <ele>256.8</ele>
        <time>2020-10-24T09:27:20Z</time>
      </trkpt>
      <trkpt lat="44.80267" lon="1.61983">
        <ele>256.6</ele>
        <time>2020-10-24T09:27:26Z</time>
      </trkpt>
      <trkpt lat="44.80262" lon="1.61988">
        <ele>256.6</ele>
        <time>2020-10-24T09:27:33Z</time>
      </trkpt>
      <trkpt lat="44.80261" lon="1.6199">
        <ele>256.6</ele>
        <time>2020-10-24T09:27:34Z</time>
      </trkpt>
      <trkpt lat="44.8026" lon="1.61992">
        <ele>256.4</ele>
        <time>2020-10-24T09:27:37Z</time>
      </trkpt>
      <trkpt lat="44.8026" lon="1.61993">
        <ele>256.4</ele>
        <time>2020-10-24T09:27:39Z</time>
      </trkpt>
      <trkpt lat="44.80261" lon="1.61994">
        <ele>256.8</ele>
        <time>2020-10-24T09:27:43Z</time>
      </trkpt>
      <trkpt lat="44.80261" lon="1.61994">
        <ele>256.4</ele>
        <time>2020-10-24T09:27:55Z</time>
      </trkpt>
      <trkpt lat="44.80261" lon="1.61992">
        <ele>257</ele>
        <time>2020-10-24T09:28:05Z</time>
      </trkpt>
      <trkpt lat="44.80261" lon="1.6199">
        <ele>256.6</ele>
        <time>2020-10-24T09:28:13Z</time>
      </trkpt>
      <trkpt lat="44.8026" lon="1.61986">
        <ele>256.6</ele>
        <time>2020-10-24T09:28:25Z</time>
      </trkpt>
      <trkpt lat="44.80254" lon="1.61974">
        <ele>256.6</ele>
        <time>2020-10-24T09:28:34Z</time>
      </trkpt>
      <trkpt lat="44.80252" lon="1.61972">
        <ele>256.6</ele>
        <time>2020-10-24T09:28:37Z</time>
      </trkpt>
      <trkpt lat="44.80252" lon="1.61972">
        <ele>256.4</ele>
        <time>2020-10-24T09:28:40Z</time>
      </trkpt>
      <trkpt lat="44.80252" lon="1.61972">
        <ele>256.2</ele>
        <time>2020-10-24T09:28:55Z</time>
      </trkpt>
      <trkpt lat="44.80252" lon="1.61972">
        <ele>256.4</ele>
        <time>2020-10-24T09:29:11Z</time>
      </trkpt>
      <trkpt lat="44.80251" lon="1.61972">
        <ele>256.8</ele>
        <time>2020-10-24T09:29:20Z</time>
      </trkpt>
      <trkpt lat="44.80254" lon="1.61972">
        <ele>256.8</ele>
        <time>2020-10-24T09:29:27Z</time>
      </trkpt>
      <trkpt lat="44.80259" lon="1.61967">
        <ele>256.6</ele>
        <time>2020-10-24T09:29:33Z</time>
      </trkpt>
      <trkpt lat="44.80257" lon="1.61955">
        <ele>256.6</ele>
        <time>2020-10-24T09:29:40Z</time>
      </trkpt>
      <trkpt lat="44.80255" lon="1.61948">
        <ele>256.8</ele>
        <time>2020-10-24T09:29:45Z</time>
      </trkpt>
      <trkpt lat="44.80254" lon="1.61938">
        <ele>256</ele>
        <time>2020-10-24T09:29:51Z</time>
      </trkpt>
      <trkpt lat="44.80253" lon="1.61934">
        <ele>256</ele>
        <time>2020-10-24T09:29:52Z</time>
      </trkpt>
      <trkpt lat="44.80249" lon="1.61917">
        <ele>255.6</ele>
        <time>2020-10-24T09:30:04Z</time>
      </trkpt>
      <trkpt lat="44.80249" lon="1.61902">
        <ele>255.2</ele>
        <time>2020-10-24T09:30:13Z</time>
      </trkpt>
      <trkpt lat="44.80248" lon="1.61878">
        <ele>255</ele>
        <time>2020-10-24T09:30:27Z</time>
      </trkpt>
      <trkpt lat="44.80248" lon="1.61876">
        <ele>255</ele>
        <time>2020-10-24T09:30:28Z</time>
      </trkpt>
      <trkpt lat="44.80246" lon="1.61859">
        <ele>254.8</ele>
        <time>2020-10-24T09:30:38Z</time>
      </trkpt>
      <trkpt lat="44.8024" lon="1.61845">
        <ele>255.2</ele>
        <time>2020-10-24T09:30:47Z</time>
      </trkpt>
      <trkpt lat="44.80232" lon="1.61833">
        <ele>255.4</ele>
        <time>2020-10-24T09:30:57Z</time>
      </trkpt>
      <trkpt lat="44.80225" lon="1.61826">
        <ele>256</ele>
        <time>2020-10-24T09:31:04Z</time>
      </trkpt>
      <trkpt lat="44.80219" lon="1.61817">
        <ele>256.4</ele>
        <time>2020-10-24T09:31:12Z</time>
      </trkpt>
      <trkpt lat="44.80212" lon="1.61808">
        <ele>256.8</ele>
        <time>2020-10-24T09:31:20Z</time>
      </trkpt>
      <trkpt lat="44.80211" lon="1.61807">
        <ele>257</ele>
        <time>2020-10-24T09:31:21Z</time>
      </trkpt>
      <trkpt lat="44.80203" lon="1.61802">
        <ele>257.6</ele>
        <time>2020-10-24T09:31:28Z</time>
      </trkpt>
      <trkpt lat="44.80199" lon="1.61799">
        <ele>258</ele>
        <time>2020-10-24T09:31:33Z</time>
      </trkpt>
      <trkpt lat="44.80199" lon="1.61799">
        <ele>258</ele>
        <time>2020-10-24T09:31:34Z</time>
      </trkpt>
      <trkpt lat="44.80199" lon="1.61799">
        <ele>258.2</ele>
        <time>2020-10-24T09:31:35Z</time>
      </trkpt>
      <trkpt lat="44.80198" lon="1.61798">
        <ele>258.2</ele>
        <time>2020-10-24T09:31:37Z</time>
      </trkpt>
      <trkpt lat="44.80197" lon="1.61797">
        <ele>258</ele>
        <time>2020-10-24T09:31:39Z</time>
      </trkpt>
      <trkpt lat="44.80193" lon="1.61787">
        <ele>258.2</ele>
        <time>2020-10-24T09:31:46Z</time>
      </trkpt>
      <trkpt lat="44.80186" lon="1.61767">
        <ele>258.8</ele>
        <time>2020-10-24T09:32:01Z</time>
      </trkpt>
      <trkpt lat="44.80176" lon="1.61753">
        <ele>259.2</ele>
        <time>2020-10-24T09:32:11Z</time>
      </trkpt>
      <trkpt lat="44.80174" lon="1.61751">
        <ele>259.2</ele>
        <time>2020-10-24T09:32:13Z</time>
      </trkpt>
      <trkpt lat="44.80166" lon="1.61736">
        <ele>259</ele>
        <time>2020-10-24T09:32:25Z</time>
      </trkpt>
      <trkpt lat="44.80156" lon="1.61714">
        <ele>258.6</ele>
        <time>2020-10-24T09:32:40Z</time>
      </trkpt>
      <trkpt lat="44.80149" lon="1.61699">
        <ele>258.6</ele>
        <time>2020-10-24T09:32:50Z</time>
      </trkpt>
      <trkpt lat="44.80146" lon="1.61692">
        <ele>258.4</ele>
        <time>2020-10-24T09:32:56Z</time>
      </trkpt>
      <trkpt lat="44.80145" lon="1.61691">
        <ele>258</ele>
        <time>2020-10-24T09:32:58Z</time>
      </trkpt>
      <trkpt lat="44.80135" lon="1.61679">
        <ele>258</ele>
        <time>2020-10-24T09:33:11Z</time>
      </trkpt>
      <trkpt lat="44.80119" lon="1.61667">
        <ele>257.6</ele>
        <time>2020-10-24T09:33:27Z</time>
      </trkpt>
      <trkpt lat="44.80104" lon="1.61661">
        <ele>257</ele>
        <time>2020-10-24T09:33:41Z</time>
      </trkpt>
      <trkpt lat="44.80095" lon="1.61658">
        <ele>256.6</ele>
        <time>2020-10-24T09:33:51Z</time>
      </trkpt>
      <trkpt lat="44.80094" lon="1.61658">
        <ele>256.8</ele>
        <time>2020-10-24T09:33:54Z</time>
      </trkpt>
      <trkpt lat="44.80089" lon="1.61657">
        <ele>257</ele>
        <time>2020-10-24T09:34:06Z</time>
      </trkpt>
      <trkpt lat="44.80084" lon="1.61653">
        <ele>257</ele>
        <time>2020-10-24T09:34:16Z</time>
      </trkpt>
      <trkpt lat="44.80083" lon="1.61653">
        <ele>257</ele>
        <time>2020-10-24T09:34:33Z</time>
      </trkpt>
      <trkpt lat="44.80082" lon="1.61653">
        <ele>257</ele>
        <time>2020-10-24T09:34:34Z</time>
      </trkpt>
      <trkpt lat="44.80079" lon="1.61653">
        <ele>257</ele>
        <time>2020-10-24T09:34:45Z</time>
      </trkpt>
      <trkpt lat="44.80067" lon="1.61655">
        <ele>257</ele>
        <time>2020-10-24T09:34:57Z</time>
      </trkpt>
      <trkpt lat="44.80065" lon="1.61655">
        <ele>256</ele>
        <time>2020-10-24T09:35:00Z</time>
      </trkpt>
      <trkpt lat="44.80054" lon="1.61657">
        <ele>255.4</ele>
        <time>2020-10-24T09:35:12Z</time>
      </trkpt>
      <trkpt lat="44.80053" lon="1.61657">
        <ele>255.6</ele>
        <time>2020-10-24T09:35:13Z</time>
      </trkpt>
      <trkpt lat="44.80053" lon="1.61657">
        <ele>255.6</ele>
        <time>2020-10-24T09:35:14Z</time>
      </trkpt>
      <trkpt lat="44.80052" lon="1.61657">
        <ele>255.6</ele>
        <time>2020-10-24T09:35:17Z</time>
      </trkpt>
      <trkpt lat="44.8005" lon="1.61657">
        <ele>255.8</ele>
        <time>2020-10-24T09:35:19Z</time>
      </trkpt>
      <trkpt lat="44.80048" lon="1.61657">
        <ele>255.6</ele>
        <time>2020-10-24T09:35:21Z</time>
      </trkpt>
      <trkpt lat="44.80033" lon="1.61657">
        <ele>255</ele>
        <time>2020-10-24T09:35:34Z</time>
      </trkpt>
      <trkpt lat="44.80032" lon="1.61657">
        <ele>255</ele>
        <time>2020-10-24T09:35:35Z</time>
      </trkpt>
      <trkpt lat="44.80012" lon="1.6166">
        <ele>255.2</ele>
        <time>2020-10-24T09:35:51Z</time>
      </trkpt>
      <trkpt lat="44.8" lon="1.61663">
        <ele>254.2</ele>
        <time>2020-10-24T09:36:03Z</time>
      </trkpt>
      <trkpt lat="44.8" lon="1.61664">
        <ele>254.2</ele>
        <time>2020-10-24T09:36:04Z</time>
      </trkpt>
      <trkpt lat="44.8" lon="1.61665">
        <ele>254</ele>
        <time>2020-10-24T09:36:07Z</time>
      </trkpt>
      <trkpt lat="44.79999" lon="1.61667">
        <ele>253.8</ele>
        <time>2020-10-24T09:36:09Z</time>
      </trkpt>
      <trkpt lat="44.79999" lon="1.61667">
        <ele>253.6</ele>
        <time>2020-10-24T09:36:11Z</time>
      </trkpt>
      <trkpt lat="44.79991" lon="1.61672">
        <ele>253.8</ele>
        <time>2020-10-24T09:36:19Z</time>
      </trkpt>
      <trkpt lat="44.79979" lon="1.61685">
        <ele>253.4</ele>
        <time>2020-10-24T09:36:36Z</time>
      </trkpt>
      <trkpt lat="44.79976" lon="1.61693">
        <ele>253.2</ele>
        <time>2020-10-24T09:36:42Z</time>
      </trkpt>
      <trkpt lat="44.79975" lon="1.61696">
        <ele>253.2</ele>
        <time>2020-10-24T09:36:45Z</time>
      </trkpt>
      <trkpt lat="44.79975" lon="1.61698">
        <ele>253.2</ele>
        <time>2020-10-24T09:36:47Z</time>
      </trkpt>
      <trkpt lat="44.79973" lon="1.61701">
        <ele>253.4</ele>
        <time>2020-10-24T09:36:50Z</time>
      </trkpt>
      <trkpt lat="44.79971" lon="1.61703">
        <ele>253.4</ele>
        <time>2020-10-24T09:36:57Z</time>
      </trkpt>
      <trkpt lat="44.79972" lon="1.61703">
        <ele>253.4</ele>
        <time>2020-10-24T09:36:59Z</time>
      </trkpt>
      <trkpt lat="44.79971" lon="1.61704">
        <ele>253.6</ele>
        <time>2020-10-24T09:37:02Z</time>
      </trkpt>
      <trkpt lat="44.79971" lon="1.61708">
        <ele>254</ele>
        <time>2020-10-24T09:37:19Z</time>
      </trkpt>
      <trkpt lat="44.79976" lon="1.61707">
        <ele>254</ele>
        <time>2020-10-24T09:37:32Z</time>
      </trkpt>
      <trkpt lat="44.79983" lon="1.61693">
        <ele>253.8</ele>
        <time>2020-10-24T09:37:44Z</time>
      </trkpt>
      <trkpt lat="44.79987" lon="1.61683">
        <ele>253.4</ele>
        <time>2020-10-24T09:37:51Z</time>
      </trkpt>
      <trkpt lat="44.79993" lon="1.61674">
        <ele>253.4</ele>
        <time>2020-10-24T09:37:58Z</time>
      </trkpt>
      <trkpt lat="44.8" lon="1.61663">
        <ele>254.2</ele>
        <time>2020-10-24T09:38:10Z</time>
      </trkpt>
      <trkpt lat="44.79999" lon="1.61659">
        <ele>254</ele>
        <time>2020-10-24T09:38:13Z</time>
      </trkpt>
      <trkpt lat="44.8" lon="1.61657">
        <ele>254</ele>
        <time>2020-10-24T09:38:20Z</time>
      </trkpt>
      <trkpt lat="44.8" lon="1.61658">
        <ele>254</ele>
        <time>2020-10-24T09:38:32Z</time>
      </trkpt>
      <trkpt lat="44.79999" lon="1.61662">
        <ele>254.2</ele>
        <time>2020-10-24T09:38:44Z</time>
      </trkpt>
      <trkpt lat="44.80002" lon="1.61667">
        <ele>253.8</ele>
        <time>2020-10-24T09:38:59Z</time>
      </trkpt>
      <trkpt lat="44.80002" lon="1.61666">
        <ele>253.8</ele>
        <time>2020-10-24T09:39:15Z</time>
      </trkpt>
      <trkpt lat="44.79999" lon="1.61662">
        <ele>254.2</ele>
        <time>2020-10-24T09:39:23Z</time>
      </trkpt>
      <trkpt lat="44.8" lon="1.61658">
        <ele>254.2</ele>
        <time>2020-10-24T09:39:34Z</time>
      </trkpt>
      <trkpt lat="44.8" lon="1.61665">
        <ele>254.2</ele>
        <time>2020-10-24T09:39:43Z</time>
      </trkpt>
      <trkpt lat="44.80004" lon="1.61666">
        <ele>254.2</ele>
        <time>2020-10-24T09:39:57Z</time>
      </trkpt>
      <trkpt lat="44.80011" lon="1.61666">
        <ele>254.2</ele>
        <time>2020-10-24T09:40:08Z</time>
      </trkpt>
      <trkpt lat="44.80014" lon="1.61666">
        <ele>254.2</ele>
        <time>2020-10-24T09:40:11Z</time>
      </trkpt>
      <trkpt lat="44.80025" lon="1.61663">
        <ele>254.6</ele>
        <time>2020-10-24T09:40:20Z</time>
      </trkpt>
      <trkpt lat="44.80041" lon="1.61663">
        <ele>254.6</ele>
        <time>2020-10-24T09:40:34Z</time>
      </trkpt>
      <trkpt lat="44.80053" lon="1.61673">
        <ele>255</ele>
        <time>2020-10-24T09:40:46Z</time>
      </trkpt>
      <trkpt lat="44.80053" lon="1.61674">
        <ele>255</ele>
        <time>2020-10-24T09:40:47Z</time>
      </trkpt>
      <trkpt lat="44.80055" lon="1.61678">
        <ele>255.4</ele>
        <time>2020-10-24T09:40:54Z</time>
      </trkpt>
      <trkpt lat="44.80054" lon="1.61677">
        <ele>255.6</ele>
        <time>2020-10-24T09:40:57Z</time>
      </trkpt>
      <trkpt lat="44.80056" lon="1.61681">
        <ele>255.4</ele>
        <time>2020-10-24T09:41:06Z</time>
      </trkpt>
      <trkpt lat="44.80061" lon="1.61693">
        <ele>254.6</ele>
        <time>2020-10-24T09:41:17Z</time>
      </trkpt>
      <trkpt lat="44.80058" lon="1.61704">
        <ele>255.6</ele>
        <time>2020-10-24T09:41:27Z</time>
      </trkpt>
      <trkpt lat="44.80058" lon="1.61704">
        <ele>255.8</ele>
        <time>2020-10-24T09:41:28Z</time>
      </trkpt>
      <trkpt lat="44.80058" lon="1.61704">
        <ele>256.2</ele>
        <time>2020-10-24T09:41:29Z</time>
      </trkpt>
      <trkpt lat="44.80058" lon="1.61704">
        <ele>256.4</ele>
        <time>2020-10-24T09:41:40Z</time>
      </trkpt>
      <trkpt lat="44.80058" lon="1.61704">
        <ele>256.4</ele>
        <time>2020-10-24T09:41:53Z</time>
      </trkpt>
      <trkpt lat="44.80058" lon="1.61705">
        <ele>255.8</ele>
        <time>2020-10-24T09:42:02Z</time>
      </trkpt>
      <trkpt lat="44.80058" lon="1.61705">
        <ele>255.8</ele>
        <time>2020-10-24T09:42:13Z</time>
      </trkpt>
      <trkpt lat="44.80058" lon="1.61703">
        <ele>255.8</ele>
        <time>2020-10-24T09:42:21Z</time>
      </trkpt>
      <trkpt lat="44.80058" lon="1.61698">
        <ele>255.8</ele>
        <time>2020-10-24T09:42:29Z</time>
      </trkpt>
      <trkpt lat="44.80061" lon="1.61687">
        <ele>255.8</ele>
        <time>2020-10-24T09:42:39Z</time>
      </trkpt>
      <trkpt lat="44.80056" lon="1.61676">
        <ele>255.4</ele>
        <time>2020-10-24T09:42:49Z</time>
      </trkpt>
      <trkpt lat="44.80055" lon="1.61676">
        <ele>255</ele>
        <time>2020-10-24T09:42:50Z</time>
      </trkpt>
      <trkpt lat="44.80048" lon="1.61669">
        <ele>254.6</ele>
        <time>2020-10-24T09:43:01Z</time>
      </trkpt>
      <trkpt lat="44.80041" lon="1.61666">
        <ele>253.8</ele>
        <time>2020-10-24T09:43:09Z</time>
      </trkpt>
      <trkpt lat="44.80037" lon="1.61666">
        <ele>252.8</ele>
        <time>2020-10-24T09:43:12Z</time>
      </trkpt>
      <trkpt lat="44.80036" lon="1.61665">
        <ele>252.6</ele>
        <time>2020-10-24T09:43:13Z</time>
      </trkpt>
      <trkpt lat="44.80029" lon="1.61665">
        <ele>251.6</ele>
        <time>2020-10-24T09:43:21Z</time>
      </trkpt>
      <trkpt lat="44.80025" lon="1.61665">
        <ele>250.6</ele>
        <time>2020-10-24T09:43:25Z</time>
      </trkpt>
      <trkpt lat="44.80024" lon="1.61665">
        <ele>250.6</ele>
        <time>2020-10-24T09:43:26Z</time>
      </trkpt>
      <trkpt lat="44.80021" lon="1.61666">
        <ele>250</ele>
        <time>2020-10-24T09:43:30Z</time>
      </trkpt>
      <trkpt lat="44.80019" lon="1.61668">
        <ele>249.6</ele>
        <time>2020-10-24T09:43:33Z</time>
      </trkpt>
      <trkpt lat="44.80018" lon="1.61671">
        <ele>249.4</ele>
        <time>2020-10-24T09:43:34Z</time>
      </trkpt>
      <trkpt lat="44.80017" lon="1.61672">
        <ele>249.2</ele>
        <time>2020-10-24T09:43:36Z</time>
      </trkpt>
      <trkpt lat="44.80016" lon="1.61673">
        <ele>248.6</ele>
        <time>2020-10-24T09:43:40Z</time>
      </trkpt>
      <trkpt lat="44.80015" lon="1.61675">
        <ele>248.4</ele>
        <time>2020-10-24T09:43:42Z</time>
      </trkpt>
      <trkpt lat="44.80015" lon="1.61677">
        <ele>248.4</ele>
        <time>2020-10-24T09:43:43Z</time>
      </trkpt>
      <trkpt lat="44.80014" lon="1.61678">
        <ele>248.2</ele>
        <time>2020-10-24T09:43:45Z</time>
      </trkpt>
      <trkpt lat="44.80015" lon="1.61679">
        <ele>247.8</ele>
        <time>2020-10-24T09:43:48Z</time>
      </trkpt>
      <trkpt lat="44.80016" lon="1.61678">
        <ele>247.8</ele>
        <time>2020-10-24T09:43:50Z</time>
      </trkpt>
      <trkpt lat="44.80016" lon="1.61679">
        <ele>247.8</ele>
        <time>2020-10-24T09:43:54Z</time>
      </trkpt>
      <trkpt lat="44.80016" lon="1.61679">
        <ele>248.2</ele>
        <time>2020-10-24T09:44:01Z</time>
      </trkpt>
      <trkpt lat="44.80018" lon="1.61677">
        <ele>247.2</ele>
        <time>2020-10-24T09:44:08Z</time>
      </trkpt>
      <trkpt lat="44.80021" lon="1.61677">
        <ele>247</ele>
        <time>2020-10-24T09:44:12Z</time>
      </trkpt>
      <trkpt lat="44.80027" lon="1.61676">
        <ele>246</ele>
        <time>2020-10-24T09:44:19Z</time>
      </trkpt>
      <trkpt lat="44.80031" lon="1.61675">
        <ele>245</ele>
        <time>2020-10-24T09:44:24Z</time>
      </trkpt>
      <trkpt lat="44.80032" lon="1.61675">
        <ele>244.8</ele>
        <time>2020-10-24T09:44:25Z</time>
      </trkpt>
      <trkpt lat="44.80032" lon="1.61675">
        <ele>244.2</ele>
        <time>2020-10-24T09:44:27Z</time>
      </trkpt>
      <trkpt lat="44.80033" lon="1.61675">
        <ele>244</ele>
        <time>2020-10-24T09:44:29Z</time>
      </trkpt>
      <trkpt lat="44.80035" lon="1.61676">
        <ele>243.8</ele>
        <time>2020-10-24T09:44:40Z</time>
      </trkpt>
      <trkpt lat="44.8004" lon="1.61673">
        <ele>242.8</ele>
        <time>2020-10-24T09:44:46Z</time>
      </trkpt>
      <trkpt lat="44.80045" lon="1.61675">
        <ele>242.4</ele>
        <time>2020-10-24T09:44:50Z</time>
      </trkpt>
      <trkpt lat="44.80047" lon="1.61674">
        <ele>242</ele>
        <time>2020-10-24T09:44:54Z</time>
      </trkpt>
      <trkpt lat="44.80047" lon="1.61674">
        <ele>241.8</ele>
        <time>2020-10-24T09:44:57Z</time>
      </trkpt>
      <trkpt lat="44.80047" lon="1.61673">
        <ele>241.6</ele>
        <time>2020-10-24T09:45:01Z</time>
      </trkpt>
      <trkpt lat="44.80047" lon="1.6167">
        <ele>241.4</ele>
        <time>2020-10-24T09:45:16Z</time>
      </trkpt>
      <trkpt lat="44.80045" lon="1.61668">
        <ele>241.4</ele>
        <time>2020-10-24T09:45:34Z</time>
      </trkpt>
      <trkpt lat="44.80047" lon="1.61676">
        <ele>241.8</ele>
        <time>2020-10-24T09:45:43Z</time>
      </trkpt>
      <trkpt lat="44.80047" lon="1.61676">
        <ele>241.6</ele>
        <time>2020-10-24T09:45:45Z</time>
      </trkpt>
      <trkpt lat="44.80054" lon="1.61686">
        <ele>241.6</ele>
        <time>2020-10-24T09:46:05Z</time>
      </trkpt>
      <trkpt lat="44.80053" lon="1.61688">
        <ele>241.4</ele>
        <time>2020-10-24T09:46:07Z</time>
      </trkpt>
      <trkpt lat="44.80049" lon="1.61685">
        <ele>240.6</ele>
        <time>2020-10-24T09:46:13Z</time>
      </trkpt>
      <trkpt lat="44.80047" lon="1.61684">
        <ele>240.2</ele>
        <time>2020-10-24T09:46:15Z</time>
      </trkpt>
      <trkpt lat="44.80045" lon="1.61683">
        <ele>239.8</ele>
        <time>2020-10-24T09:46:17Z</time>
      </trkpt>
      <trkpt lat="44.80044" lon="1.61682">
        <ele>239.6</ele>
        <time>2020-10-24T09:46:19Z</time>
      </trkpt>
      <trkpt lat="44.8004" lon="1.6168">
        <ele>238.8</ele>
        <time>2020-10-24T09:46:25Z</time>
      </trkpt>
      <trkpt lat="44.80039" lon="1.6168">
        <ele>238.6</ele>
        <time>2020-10-24T09:46:26Z</time>
      </trkpt>
      <trkpt lat="44.80039" lon="1.61679">
        <ele>238.2</ele>
        <time>2020-10-24T09:46:28Z</time>
      </trkpt>
      <trkpt lat="44.80039" lon="1.61679">
        <ele>238</ele>
        <time>2020-10-24T09:46:31Z</time>
      </trkpt>
      <trkpt lat="44.8004" lon="1.61679">
        <ele>238</ele>
        <time>2020-10-24T09:46:32Z</time>
      </trkpt>
      <trkpt lat="44.8004" lon="1.61677">
        <ele>238</ele>
        <time>2020-10-24T09:46:45Z</time>
      </trkpt>
      <trkpt lat="44.8004" lon="1.61679">
        <ele>237.6</ele>
        <time>2020-10-24T09:46:56Z</time>
      </trkpt>
      <trkpt lat="44.8004" lon="1.61682">
        <ele>236.8</ele>
        <time>2020-10-24T09:47:02Z</time>
      </trkpt>
      <trkpt lat="44.8004" lon="1.61683">
        <ele>236.6</ele>
        <time>2020-10-24T09:47:04Z</time>
      </trkpt>
      <trkpt lat="44.80041" lon="1.61686">
        <ele>236.4</ele>
        <time>2020-10-24T09:47:05Z</time>
      </trkpt>
      <trkpt lat="44.80042" lon="1.61699">
        <ele>236</ele>
        <time>2020-10-24T09:47:09Z</time>
      </trkpt>
      <trkpt lat="44.80043" lon="1.61703">
        <ele>235.8</ele>
        <time>2020-10-24T09:47:13Z</time>
      </trkpt>
      <trkpt lat="44.80045" lon="1.61705">
        <ele>235.4</ele>
        <time>2020-10-24T09:47:15Z</time>
      </trkpt>
      <trkpt lat="44.80045" lon="1.61709">
        <ele>235.2</ele>
        <time>2020-10-24T09:47:19Z</time>
      </trkpt>
      <trkpt lat="44.80044" lon="1.61708">
        <ele>235</ele>
        <time>2020-10-24T09:47:23Z</time>
      </trkpt>
      <trkpt lat="44.8004" lon="1.61703">
        <ele>234.2</ele>
        <time>2020-10-24T09:47:29Z</time>
      </trkpt>
      <trkpt lat="44.80037" lon="1.617">
        <ele>233.6</ele>
        <time>2020-10-24T09:47:34Z</time>
      </trkpt>
      <trkpt lat="44.80035" lon="1.61697">
        <ele>233</ele>
        <time>2020-10-24T09:47:37Z</time>
      </trkpt>
      <trkpt lat="44.8003" lon="1.6169">
        <ele>232.2</ele>
        <time>2020-10-24T09:47:45Z</time>
      </trkpt>
      <trkpt lat="44.80028" lon="1.61688">
        <ele>231.8</ele>
        <time>2020-10-24T09:47:47Z</time>
      </trkpt>
      <trkpt lat="44.80027" lon="1.61688">
        <ele>231.8</ele>
        <time>2020-10-24T09:47:49Z</time>
      </trkpt>
      <trkpt lat="44.80026" lon="1.61688">
        <ele>231.8</ele>
        <time>2020-10-24T09:47:50Z</time>
      </trkpt>
      <trkpt lat="44.80024" lon="1.6169">
        <ele>231.4</ele>
        <time>2020-10-24T09:47:54Z</time>
      </trkpt>
      <trkpt lat="44.80024" lon="1.6169">
        <ele>230.8</ele>
        <time>2020-10-24T09:47:58Z</time>
      </trkpt>
      <trkpt lat="44.80024" lon="1.6169">
        <ele>230.8</ele>
        <time>2020-10-24T09:47:59Z</time>
      </trkpt>
      <trkpt lat="44.80027" lon="1.61692">
        <ele>230.4</ele>
        <time>2020-10-24T09:48:10Z</time>
      </trkpt>
      <trkpt lat="44.80027" lon="1.61692">
        <ele>230.4</ele>
        <time>2020-10-24T09:48:11Z</time>
      </trkpt>
      <trkpt lat="44.8003" lon="1.61696">
        <ele>229.8</ele>
        <time>2020-10-24T09:48:15Z</time>
      </trkpt>
      <trkpt lat="44.80034" lon="1.61705">
        <ele>229.2</ele>
        <time>2020-10-24T09:48:22Z</time>
      </trkpt>
      <trkpt lat="44.80036" lon="1.6171">
        <ele>228.8</ele>
        <time>2020-10-24T09:48:26Z</time>
      </trkpt>
      <trkpt lat="44.80038" lon="1.61713">
        <ele>228.6</ele>
        <time>2020-10-24T09:48:28Z</time>
      </trkpt>
      <trkpt lat="44.80037" lon="1.61713">
        <ele>228.4</ele>
        <time>2020-10-24T09:48:30Z</time>
      </trkpt>
      <trkpt lat="44.80035" lon="1.61713">
        <ele>228.2</ele>
        <time>2020-10-24T09:48:32Z</time>
      </trkpt>
      <trkpt lat="44.80034" lon="1.61713">
        <ele>228</ele>
        <time>2020-10-24T09:48:33Z</time>
      </trkpt>
      <trkpt lat="44.80033" lon="1.61709">
        <ele>227.8</ele>
        <time>2020-10-24T09:48:37Z</time>
      </trkpt>
      <trkpt lat="44.8003" lon="1.61705">
        <ele>227</ele>
        <time>2020-10-24T09:48:44Z</time>
      </trkpt>
      <trkpt lat="44.80028" lon="1.61703">
        <ele>226.6</ele>
        <time>2020-10-24T09:48:47Z</time>
      </trkpt>
      <trkpt lat="44.8002" lon="1.61698">
        <ele>225.6</ele>
        <time>2020-10-24T09:48:56Z</time>
      </trkpt>
      <trkpt lat="44.80017" lon="1.61696">
        <ele>225.4</ele>
        <time>2020-10-24T09:49:00Z</time>
      </trkpt>
      <trkpt lat="44.80012" lon="1.6169">
        <ele>225.2</ele>
        <time>2020-10-24T09:49:09Z</time>
      </trkpt>
      <trkpt lat="44.8001" lon="1.61689">
        <ele>225.4</ele>
        <time>2020-10-24T09:49:12Z</time>
      </trkpt>
      <trkpt lat="44.80005" lon="1.61691">
        <ele>226.8</ele>
        <time>2020-10-24T09:49:20Z</time>
      </trkpt>
      <trkpt lat="44.80002" lon="1.61692">
        <ele>227.4</ele>
        <time>2020-10-24T09:49:25Z</time>
      </trkpt>
      <trkpt lat="44.80001" lon="1.61692">
        <ele>228</ele>
        <time>2020-10-24T09:49:27Z</time>
      </trkpt>
      <trkpt lat="44.79997" lon="1.6169">
        <ele>228.6</ele>
        <time>2020-10-24T09:49:39Z</time>
      </trkpt>
      <trkpt lat="44.79998" lon="1.61694">
        <ele>228.2</ele>
        <time>2020-10-24T09:49:52Z</time>
      </trkpt>
      <trkpt lat="44.80008" lon="1.61697">
        <ele>228.4</ele>
        <time>2020-10-24T09:50:05Z</time>
      </trkpt>
      <trkpt lat="44.8001" lon="1.61692">
        <ele>227</ele>
        <time>2020-10-24T09:50:23Z</time>
      </trkpt>
      <trkpt lat="44.80011" lon="1.61691">
        <ele>227</ele>
        <time>2020-10-24T09:50:24Z</time>
      </trkpt>
      <trkpt lat="44.80011" lon="1.61695">
        <ele>225.8</ele>
        <time>2020-10-24T09:50:29Z</time>
      </trkpt>
      <trkpt lat="44.8001" lon="1.61701">
        <ele>225.4</ele>
        <time>2020-10-24T09:50:33Z</time>
      </trkpt>
      <trkpt lat="44.80006" lon="1.61707">
        <ele>224.8</ele>
        <time>2020-10-24T09:50:45Z</time>
      </trkpt>
      <trkpt lat="44.80006" lon="1.61708">
        <ele>224.8</ele>
        <time>2020-10-24T09:50:46Z</time>
      </trkpt>
      <trkpt lat="44.80001" lon="1.61713">
        <ele>224.2</ele>
        <time>2020-10-24T09:50:52Z</time>
      </trkpt>
      <trkpt lat="44.8" lon="1.61715">
        <ele>223.8</ele>
        <time>2020-10-24T09:50:53Z</time>
      </trkpt>
      <trkpt lat="44.79995" lon="1.6172">
        <ele>222.8</ele>
        <time>2020-10-24T09:51:01Z</time>
      </trkpt>
      <trkpt lat="44.79995" lon="1.6172">
        <ele>222.6</ele>
        <time>2020-10-24T09:51:02Z</time>
      </trkpt>
      <trkpt lat="44.79994" lon="1.61724">
        <ele>222.6</ele>
        <time>2020-10-24T09:51:05Z</time>
      </trkpt>
      <trkpt lat="44.79992" lon="1.61725">
        <ele>222.6</ele>
        <time>2020-10-24T09:51:09Z</time>
      </trkpt>
      <trkpt lat="44.79991" lon="1.61727">
        <ele>222.6</ele>
        <time>2020-10-24T09:51:11Z</time>
      </trkpt>
      <trkpt lat="44.7999" lon="1.61731">
        <ele>222.4</ele>
        <time>2020-10-24T09:51:14Z</time>
      </trkpt>
      <trkpt lat="44.79988" lon="1.61738">
        <ele>222.8</ele>
        <time>2020-10-24T09:51:19Z</time>
      </trkpt>
      <trkpt lat="44.79983" lon="1.61747">
        <ele>222.8</ele>
        <time>2020-10-24T09:51:28Z</time>
      </trkpt>
      <trkpt lat="44.79983" lon="1.61748">
        <ele>222.8</ele>
        <time>2020-10-24T09:51:29Z</time>
      </trkpt>
      <trkpt lat="44.79983" lon="1.61749">
        <ele>223.4</ele>
        <time>2020-10-24T09:51:37Z</time>
      </trkpt>
      <trkpt lat="44.79981" lon="1.61751">
        <ele>223.2</ele>
        <time>2020-10-24T09:51:50Z</time>
      </trkpt>
      <trkpt lat="44.79981" lon="1.6175">
        <ele>223</ele>
        <time>2020-10-24T09:52:03Z</time>
      </trkpt>
      <trkpt lat="44.79982" lon="1.6175">
        <ele>223</ele>
        <time>2020-10-24T09:52:18Z</time>
      </trkpt>
      <trkpt lat="44.79981" lon="1.6175">
        <ele>223.4</ele>
        <time>2020-10-24T09:52:28Z</time>
      </trkpt>
      <trkpt lat="44.79983" lon="1.61748">
        <ele>223.4</ele>
        <time>2020-10-24T09:52:38Z</time>
      </trkpt>
      <trkpt lat="44.79988" lon="1.61736">
        <ele>222.6</ele>
        <time>2020-10-24T09:52:49Z</time>
      </trkpt>
      <trkpt lat="44.79996" lon="1.61722">
        <ele>221.6</ele>
        <time>2020-10-24T09:53:00Z</time>
      </trkpt>
      <trkpt lat="44.79996" lon="1.61722">
        <ele>221.2</ele>
        <time>2020-10-24T09:53:02Z</time>
      </trkpt>
      <trkpt lat="44.79999" lon="1.61721">
        <ele>220.6</ele>
        <time>2020-10-24T09:53:05Z</time>
      </trkpt>
      <trkpt lat="44.80006" lon="1.61719">
        <ele>219.6</ele>
        <time>2020-10-24T09:53:10Z</time>
      </trkpt>
      <trkpt lat="44.80011" lon="1.61719">
        <ele>218.8</ele>
        <time>2020-10-24T09:53:14Z</time>
      </trkpt>
      <trkpt lat="44.80011" lon="1.61719">
        <ele>218.4</ele>
        <time>2020-10-24T09:53:15Z</time>
      </trkpt>
      <trkpt lat="44.80011" lon="1.61722">
        <ele>218</ele>
        <time>2020-10-24T09:53:18Z</time>
      </trkpt>
      <trkpt lat="44.80011" lon="1.61722">
        <ele>218</ele>
        <time>2020-10-24T09:53:20Z</time>
      </trkpt>
      <trkpt lat="44.8001" lon="1.61723">
        <ele>217.8</ele>
        <time>2020-10-24T09:53:21Z</time>
      </trkpt>
      <trkpt lat="44.80007" lon="1.61724">
        <ele>217.6</ele>
        <time>2020-10-24T09:53:24Z</time>
      </trkpt>
      <trkpt lat="44.80006" lon="1.61724">
        <ele>217.4</ele>
        <time>2020-10-24T09:53:26Z</time>
      </trkpt>
      <trkpt lat="44.80005" lon="1.61725">
        <ele>217.2</ele>
        <time>2020-10-24T09:53:27Z</time>
      </trkpt>
      <trkpt lat="44.80002" lon="1.61727">
        <ele>216.6</ele>
        <time>2020-10-24T09:53:31Z</time>
      </trkpt>
      <trkpt lat="44.80001" lon="1.61728">
        <ele>216.4</ele>
        <time>2020-10-24T09:53:32Z</time>
      </trkpt>
      <trkpt lat="44.8" lon="1.61729">
        <ele>216.4</ele>
        <time>2020-10-24T09:53:33Z</time>
      </trkpt>
      <trkpt lat="44.79998" lon="1.61733">
        <ele>216</ele>
        <time>2020-10-24T09:53:36Z</time>
      </trkpt>
      <trkpt lat="44.79998" lon="1.61734">
        <ele>215.6</ele>
        <time>2020-10-24T09:53:38Z</time>
      </trkpt>
      <trkpt lat="44.79997" lon="1.61735">
        <ele>215.2</ele>
        <time>2020-10-24T09:53:40Z</time>
      </trkpt>
      <trkpt lat="44.79996" lon="1.61736">
        <ele>214.8</ele>
        <time>2020-10-24T09:53:41Z</time>
      </trkpt>
      <trkpt lat="44.79994" lon="1.61738">
        <ele>214.4</ele>
        <time>2020-10-24T09:53:44Z</time>
      </trkpt>
      <trkpt lat="44.79994" lon="1.61739">
        <ele>214.2</ele>
        <time>2020-10-24T09:53:46Z</time>
      </trkpt>
      <trkpt lat="44.79994" lon="1.6174">
        <ele>214</ele>
        <time>2020-10-24T09:53:47Z</time>
      </trkpt>
      <trkpt lat="44.79994" lon="1.61741">
        <ele>213.8</ele>
        <time>2020-10-24T09:53:49Z</time>
      </trkpt>
      <trkpt lat="44.79996" lon="1.61739">
        <ele>213.4</ele>
        <time>2020-10-24T09:53:52Z</time>
      </trkpt>
      <trkpt lat="44.79999" lon="1.61735">
        <ele>212.8</ele>
        <time>2020-10-24T09:53:59Z</time>
      </trkpt>
      <trkpt lat="44.80004" lon="1.61735">
        <ele>211.8</ele>
        <time>2020-10-24T09:54:04Z</time>
      </trkpt>
      <trkpt lat="44.80005" lon="1.61736">
        <ele>211.8</ele>
        <time>2020-10-24T09:54:05Z</time>
      </trkpt>
      <trkpt lat="44.80012" lon="1.6174">
        <ele>210.8</ele>
        <time>2020-10-24T09:54:13Z</time>
      </trkpt>
      <trkpt lat="44.80011" lon="1.6174">
        <ele>210.6</ele>
        <time>2020-10-24T09:54:15Z</time>
      </trkpt>
      <trkpt lat="44.80009" lon="1.61739">
        <ele>209.8</ele>
        <time>2020-10-24T09:54:21Z</time>
      </trkpt>
      <trkpt lat="44.80004" lon="1.61739">
        <ele>208.6</ele>
        <time>2020-10-24T09:54:27Z</time>
      </trkpt>
      <trkpt lat="44.80003" lon="1.6174">
        <ele>208.4</ele>
        <time>2020-10-24T09:54:29Z</time>
      </trkpt>
      <trkpt lat="44.79999" lon="1.61743">
        <ele>207.8</ele>
        <time>2020-10-24T09:54:34Z</time>
      </trkpt>
      <trkpt lat="44.79998" lon="1.61744">
        <ele>207.6</ele>
        <time>2020-10-24T09:54:35Z</time>
      </trkpt>
      <trkpt lat="44.79998" lon="1.61745">
        <ele>207.6</ele>
        <time>2020-10-24T09:54:36Z</time>
      </trkpt>
      <trkpt lat="44.79999" lon="1.61745">
        <ele>207.4</ele>
        <time>2020-10-24T09:54:39Z</time>
      </trkpt>
      <trkpt lat="44.8" lon="1.61745">
        <ele>207.4</ele>
        <time>2020-10-24T09:54:41Z</time>
      </trkpt>
      <trkpt lat="44.80002" lon="1.61747">
        <ele>206.6</ele>
        <time>2020-10-24T09:54:45Z</time>
      </trkpt>
      <trkpt lat="44.80009" lon="1.61751">
        <ele>205.6</ele>
        <time>2020-10-24T09:54:53Z</time>
      </trkpt>
      <trkpt lat="44.80012" lon="1.61758">
        <ele>204.8</ele>
        <time>2020-10-24T09:54:57Z</time>
      </trkpt>
      <trkpt lat="44.80013" lon="1.6176">
        <ele>204.4</ele>
        <time>2020-10-24T09:54:59Z</time>
      </trkpt>
      <trkpt lat="44.80011" lon="1.61763">
        <ele>204</ele>
        <time>2020-10-24T09:55:02Z</time>
      </trkpt>
      <trkpt lat="44.8001" lon="1.61763">
        <ele>204</ele>
        <time>2020-10-24T09:55:03Z</time>
      </trkpt>
      <trkpt lat="44.80008" lon="1.61763">
        <ele>203.6</ele>
        <time>2020-10-24T09:55:06Z</time>
      </trkpt>
      <trkpt lat="44.80008" lon="1.61763">
        <ele>203.4</ele>
        <time>2020-10-24T09:55:07Z</time>
      </trkpt>
      <trkpt lat="44.80005" lon="1.61762">
        <ele>202.8</ele>
        <time>2020-10-24T09:55:11Z</time>
      </trkpt>
      <trkpt lat="44.80004" lon="1.61762">
        <ele>202.6</ele>
        <time>2020-10-24T09:55:12Z</time>
      </trkpt>
      <trkpt lat="44.80003" lon="1.61761">
        <ele>202.2</ele>
        <time>2020-10-24T09:55:14Z</time>
      </trkpt>
      <trkpt lat="44.80002" lon="1.6176">
        <ele>201.8</ele>
        <time>2020-10-24T09:55:16Z</time>
      </trkpt>
      <trkpt lat="44.79997" lon="1.61759">
        <ele>201</ele>
        <time>2020-10-24T09:55:22Z</time>
      </trkpt>
      <trkpt lat="44.79996" lon="1.61759">
        <ele>201</ele>
        <time>2020-10-24T09:55:23Z</time>
      </trkpt>
      <trkpt lat="44.79995" lon="1.61759">
        <ele>200.6</ele>
        <time>2020-10-24T09:55:25Z</time>
      </trkpt>
      <trkpt lat="44.79995" lon="1.61759">
        <ele>200.6</ele>
        <time>2020-10-24T09:55:26Z</time>
      </trkpt>
      <trkpt lat="44.79993" lon="1.6176">
        <ele>200</ele>
        <time>2020-10-24T09:55:29Z</time>
      </trkpt>
      <trkpt lat="44.79989" lon="1.6176">
        <ele>199</ele>
        <time>2020-10-24T09:55:37Z</time>
      </trkpt>
      <trkpt lat="44.79989" lon="1.61759">
        <ele>199</ele>
        <time>2020-10-24T09:55:40Z</time>
      </trkpt>
      <trkpt lat="44.79985" lon="1.61753">
        <ele>198.8</ele>
        <time>2020-10-24T09:55:52Z</time>
      </trkpt>
      <trkpt lat="44.79979" lon="1.61757">
        <ele>199</ele>
        <time>2020-10-24T09:56:04Z</time>
      </trkpt>
      <trkpt lat="44.79979" lon="1.61757">
        <ele>199.2</ele>
        <time>2020-10-24T09:56:25Z</time>
      </trkpt>
      <trkpt lat="44.79948" lon="1.61765">
        <ele>199.2</ele>
        <time>2020-10-24T09:56:34Z</time>
      </trkpt>
      <trkpt lat="44.79949" lon="1.61762">
        <ele>199</ele>
        <time>2020-10-24T09:56:37Z</time>
      </trkpt>
      <trkpt lat="44.79948" lon="1.61765">
        <ele>198.8</ele>
        <time>2020-10-24T09:56:39Z</time>
      </trkpt>
      <trkpt lat="44.79944" lon="1.61774">
        <ele>198.8</ele>
        <time>2020-10-24T09:56:45Z</time>
      </trkpt>
      <trkpt lat="44.79934" lon="1.61781">
        <ele>198.6</ele>
        <time>2020-10-24T09:56:57Z</time>
      </trkpt>
      <trkpt lat="44.79937" lon="1.61783">
        <ele>199.4</ele>
        <time>2020-10-24T09:57:13Z</time>
      </trkpt>
      <trkpt lat="44.79938" lon="1.61786">
        <ele>198.8</ele>
        <time>2020-10-24T09:57:27Z</time>
      </trkpt>
      <trkpt lat="44.7994" lon="1.61781">
        <ele>199.4</ele>
        <time>2020-10-24T09:57:40Z</time>
      </trkpt>
      <trkpt lat="44.79946" lon="1.61784">
        <ele>198.6</ele>
        <time>2020-10-24T09:57:54Z</time>
      </trkpt>
      <trkpt lat="44.79944" lon="1.61774">
        <ele>199</ele>
        <time>2020-10-24T09:58:09Z</time>
      </trkpt>
      <trkpt lat="44.79942" lon="1.61767">
        <ele>199</ele>
        <time>2020-10-24T09:58:13Z</time>
      </trkpt>
      <trkpt lat="44.79941" lon="1.61766">
        <ele>199</ele>
        <time>2020-10-24T09:58:15Z</time>
      </trkpt>
      <trkpt lat="44.79939" lon="1.61761">
        <ele>198.8</ele>
        <time>2020-10-24T09:58:18Z</time>
      </trkpt>
      <trkpt lat="44.79939" lon="1.61757">
        <ele>198.8</ele>
        <time>2020-10-24T09:58:20Z</time>
      </trkpt>
      <trkpt lat="44.7994" lon="1.61754">
        <ele>198.8</ele>
        <time>2020-10-24T09:58:22Z</time>
      </trkpt>
      <trkpt lat="44.7994" lon="1.61753">
        <ele>199</ele>
        <time>2020-10-24T09:58:24Z</time>
      </trkpt>
      <trkpt lat="44.79941" lon="1.61748">
        <ele>200</ele>
        <time>2020-10-24T09:58:29Z</time>
      </trkpt>
      <trkpt lat="44.79941" lon="1.61746">
        <ele>200.4</ele>
        <time>2020-10-24T09:58:31Z</time>
      </trkpt>
      <trkpt lat="44.79942" lon="1.61742">
        <ele>201.2</ele>
        <time>2020-10-24T09:58:34Z</time>
      </trkpt>
      <trkpt lat="44.79943" lon="1.61738">
        <ele>202.2</ele>
        <time>2020-10-24T09:58:38Z</time>
      </trkpt>
      <trkpt lat="44.79944" lon="1.61734">
        <ele>203</ele>
        <time>2020-10-24T09:58:43Z</time>
      </trkpt>
      <trkpt lat="44.79944" lon="1.61733">
        <ele>203</ele>
        <time>2020-10-24T09:58:44Z</time>
      </trkpt>
      <trkpt lat="44.79947" lon="1.61724">
        <ele>203.2</ele>
        <time>2020-10-24T09:58:53Z</time>
      </trkpt>
      <trkpt lat="44.79947" lon="1.61723">
        <ele>203.2</ele>
        <time>2020-10-24T09:58:54Z</time>
      </trkpt>
      <trkpt lat="44.7995" lon="1.61722">
        <ele>203.2</ele>
        <time>2020-10-24T09:58:56Z</time>
      </trkpt>
      <trkpt lat="44.79951" lon="1.61719">
        <ele>203.2</ele>
        <time>2020-10-24T09:59:00Z</time>
      </trkpt>
      <trkpt lat="44.79957" lon="1.61715">
        <ele>203</ele>
        <time>2020-10-24T09:59:09Z</time>
      </trkpt>
      <trkpt lat="44.79957" lon="1.61715">
        <ele>203.4</ele>
        <time>2020-10-24T09:59:30Z</time>
      </trkpt>
      <trkpt lat="44.79957" lon="1.61715">
        <ele>203.4</ele>
        <time>2020-10-24T09:59:51Z</time>
      </trkpt>
      <trkpt lat="44.79957" lon="1.61715">
        <ele>203.4</ele>
        <time>2020-10-24T10:00:00Z</time>
      </trkpt>
      <trkpt lat="44.79957" lon="1.61715">
        <ele>202.6</ele>
        <time>2020-10-24T10:00:21Z</time>
      </trkpt>
      <trkpt lat="44.79957" lon="1.61715">
        <ele>202.6</ele>
        <time>2020-10-24T10:00:42Z</time>
      </trkpt>
      <trkpt lat="44.79957" lon="1.61715">
        <ele>202.2</ele>
        <time>2020-10-24T10:00:50Z</time>
      </trkpt>
      <trkpt lat="44.79957" lon="1.61715">
        <ele>202.6</ele>
        <time>2020-10-24T10:01:11Z</time>
      </trkpt>
      <trkpt lat="44.79957" lon="1.61715">
        <ele>202.6</ele>
        <time>2020-10-24T10:01:32Z</time>
      </trkpt>
      <trkpt lat="44.79957" lon="1.61715">
        <ele>202.8</ele>
        <time>2020-10-24T10:01:53Z</time>
      </trkpt>
      <trkpt lat="44.79957" lon="1.61715">
        <ele>202.8</ele>
        <time>2020-10-24T10:01:55Z</time>
      </trkpt>
      <trkpt lat="44.79964" lon="1.61749">
        <ele>202.6</ele>
        <time>2020-10-24T10:02:00Z</time>
      </trkpt>
      <trkpt lat="44.79955" lon="1.61755">
        <ele>202.6</ele>
        <time>2020-10-24T10:02:02Z</time>
      </trkpt>
      <trkpt lat="44.79949" lon="1.61758">
        <ele>202.4</ele>
        <time>2020-10-24T10:02:04Z</time>
      </trkpt>
      <trkpt lat="44.79945" lon="1.6176">
        <ele>202.4</ele>
        <time>2020-10-24T10:02:06Z</time>
      </trkpt>
      <trkpt lat="44.79944" lon="1.61761">
        <ele>202.4</ele>
        <time>2020-10-24T10:02:07Z</time>
      </trkpt>
      <trkpt lat="44.79943" lon="1.61763">
        <ele>201.8</ele>
        <time>2020-10-24T10:02:10Z</time>
      </trkpt>
      <trkpt lat="44.79941" lon="1.61765">
        <ele>201</ele>
        <time>2020-10-24T10:02:14Z</time>
      </trkpt>
      <trkpt lat="44.79941" lon="1.61766">
        <ele>200</ele>
        <time>2020-10-24T10:02:18Z</time>
      </trkpt>
      <trkpt lat="44.79938" lon="1.61763">
        <ele>199.6</ele>
        <time>2020-10-24T10:02:22Z</time>
      </trkpt>
      <trkpt lat="44.79937" lon="1.61758">
        <ele>198.8</ele>
        <time>2020-10-24T10:02:33Z</time>
      </trkpt>
      <trkpt lat="44.79936" lon="1.61757">
        <ele>198.8</ele>
        <time>2020-10-24T10:02:35Z</time>
      </trkpt>
      <trkpt lat="44.79933" lon="1.61759">
        <ele>197.6</ele>
        <time>2020-10-24T10:02:45Z</time>
      </trkpt>
      <trkpt lat="44.79931" lon="1.61763">
        <ele>196.4</ele>
        <time>2020-10-24T10:02:49Z</time>
      </trkpt>
      <trkpt lat="44.7993" lon="1.61765">
        <ele>196.2</ele>
        <time>2020-10-24T10:02:50Z</time>
      </trkpt>
      <trkpt lat="44.79926" lon="1.61768">
        <ele>195.4</ele>
        <time>2020-10-24T10:02:54Z</time>
      </trkpt>
      <trkpt lat="44.79926" lon="1.61768">
        <ele>194.2</ele>
        <time>2020-10-24T10:02:58Z</time>
      </trkpt>
      <trkpt lat="44.79926" lon="1.61768">
        <ele>192.8</ele>
        <time>2020-10-24T10:03:03Z</time>
      </trkpt>
      <trkpt lat="44.79926" lon="1.61768">
        <ele>191.8</ele>
        <time>2020-10-24T10:03:08Z</time>
      </trkpt>
      <trkpt lat="44.79912" lon="1.61757">
        <ele>191.2</ele>
        <time>2020-10-24T10:03:11Z</time>
      </trkpt>
      <trkpt lat="44.79913" lon="1.61755">
        <ele>190.6</ele>
        <time>2020-10-24T10:03:14Z</time>
      </trkpt>
      <trkpt lat="44.79913" lon="1.61754">
        <ele>190.4</ele>
        <time>2020-10-24T10:03:15Z</time>
      </trkpt>
      <trkpt lat="44.79913" lon="1.61753">
        <ele>190.2</ele>
        <time>2020-10-24T10:03:16Z</time>
      </trkpt>
      <trkpt lat="44.79914" lon="1.61753">
        <ele>189.8</ele>
        <time>2020-10-24T10:03:18Z</time>
      </trkpt>
      <trkpt lat="44.79913" lon="1.61754">
        <ele>189.6</ele>
        <time>2020-10-24T10:03:19Z</time>
      </trkpt>
      <trkpt lat="44.79912" lon="1.61753">
        <ele>189.2</ele>
        <time>2020-10-24T10:03:21Z</time>
      </trkpt>
      <trkpt lat="44.79911" lon="1.61754">
        <ele>189</ele>
        <time>2020-10-24T10:03:24Z</time>
      </trkpt>
      <trkpt lat="44.79912" lon="1.61754">
        <ele>189</ele>
        <time>2020-10-24T10:03:25Z</time>
      </trkpt>
      <trkpt lat="44.79913" lon="1.61756">
        <ele>189.6</ele>
        <time>2020-10-24T10:03:37Z</time>
      </trkpt>
      <trkpt lat="44.79912" lon="1.61751">
        <ele>189</ele>
        <time>2020-10-24T10:03:45Z</time>
      </trkpt>
      <trkpt lat="44.79907" lon="1.61748">
        <ele>188.4</ele>
        <time>2020-10-24T10:03:54Z</time>
      </trkpt>
      <trkpt lat="44.79906" lon="1.6175">
        <ele>188.4</ele>
        <time>2020-10-24T10:03:58Z</time>
      </trkpt>
      <trkpt lat="44.79902" lon="1.61756">
        <ele>188</ele>
        <time>2020-10-24T10:04:11Z</time>
      </trkpt>
      <trkpt lat="44.79897" lon="1.61763">
        <ele>188.2</ele>
        <time>2020-10-24T10:04:21Z</time>
      </trkpt>
      <trkpt lat="44.79895" lon="1.61764">
        <ele>188.2</ele>
        <time>2020-10-24T10:04:24Z</time>
      </trkpt>
      <trkpt lat="44.79895" lon="1.61765">
        <ele>188.2</ele>
        <time>2020-10-24T10:04:25Z</time>
      </trkpt>
      <trkpt lat="44.79894" lon="1.61765">
        <ele>189</ele>
        <time>2020-10-24T10:04:29Z</time>
      </trkpt>
      <trkpt lat="44.79893" lon="1.61764">
        <ele>188</ele>
        <time>2020-10-24T10:04:37Z</time>
      </trkpt>
      <trkpt lat="44.79893" lon="1.61765">
        <ele>188.2</ele>
        <time>2020-10-24T10:04:51Z</time>
      </trkpt>
      <trkpt lat="44.79895" lon="1.61765">
        <ele>188.4</ele>
        <time>2020-10-24T10:05:08Z</time>
      </trkpt>
      <trkpt lat="44.79894" lon="1.61759">
        <ele>188.4</ele>
        <time>2020-10-24T10:05:25Z</time>
      </trkpt>
      <trkpt lat="44.79885" lon="1.61752">
        <ele>189.6</ele>
        <time>2020-10-24T10:05:45Z</time>
      </trkpt>
      <trkpt lat="44.79875" lon="1.61749">
        <ele>189.6</ele>
        <time>2020-10-24T10:06:06Z</time>
      </trkpt>
      <trkpt lat="44.79876" lon="1.61746">
        <ele>189.6</ele>
        <time>2020-10-24T10:06:16Z</time>
      </trkpt>
      <trkpt lat="44.79875" lon="1.61738">
        <ele>189.8</ele>
        <time>2020-10-24T10:06:18Z</time>
      </trkpt>
      <trkpt lat="44.79871" lon="1.6173">
        <ele>190</ele>
        <time>2020-10-24T10:06:24Z</time>
      </trkpt>
      <trkpt lat="44.79869" lon="1.61727">
        <ele>190</ele>
        <time>2020-10-24T10:06:27Z</time>
      </trkpt>
      <trkpt lat="44.79875" lon="1.61708">
        <ele>189.6</ele>
        <time>2020-10-24T10:06:34Z</time>
      </trkpt>
      <trkpt lat="44.79869" lon="1.61713">
        <ele>189.2</ele>
        <time>2020-10-24T10:06:48Z</time>
      </trkpt>
      <trkpt lat="44.79867" lon="1.61712">
        <ele>189.2</ele>
        <time>2020-10-24T10:06:50Z</time>
      </trkpt>
      <trkpt lat="44.79861" lon="1.61705">
        <ele>190.2</ele>
        <time>2020-10-24T10:07:01Z</time>
      </trkpt>
      <trkpt lat="44.79856" lon="1.617">
        <ele>190.6</ele>
        <time>2020-10-24T10:07:09Z</time>
      </trkpt>
      <trkpt lat="44.79855" lon="1.61694">
        <ele>190.8</ele>
        <time>2020-10-24T10:07:14Z</time>
      </trkpt>
      <trkpt lat="44.79851" lon="1.6169">
        <ele>190.6</ele>
        <time>2020-10-24T10:07:20Z</time>
      </trkpt>
      <trkpt lat="44.79847" lon="1.61687">
        <ele>190.6</ele>
        <time>2020-10-24T10:07:25Z</time>
      </trkpt>
      <trkpt lat="44.79839" lon="1.61682">
        <ele>190.2</ele>
        <time>2020-10-24T10:07:37Z</time>
      </trkpt>
      <trkpt lat="44.79836" lon="1.6168">
        <ele>190</ele>
        <time>2020-10-24T10:07:41Z</time>
      </trkpt>
      <trkpt lat="44.79836" lon="1.61679">
        <ele>189.8</ele>
        <time>2020-10-24T10:07:43Z</time>
      </trkpt>
      <trkpt lat="44.79836" lon="1.61679">
        <ele>189.6</ele>
        <time>2020-10-24T10:07:45Z</time>
      </trkpt>
      <trkpt lat="44.79835" lon="1.61678">
        <ele>189.6</ele>
        <time>2020-10-24T10:07:49Z</time>
      </trkpt>
      <trkpt lat="44.79837" lon="1.61676">
        <ele>189.6</ele>
        <time>2020-10-24T10:07:59Z</time>
      </trkpt>
      <trkpt lat="44.79837" lon="1.61675">
        <ele>189.8</ele>
        <time>2020-10-24T10:08:03Z</time>
      </trkpt>
      <trkpt lat="44.79837" lon="1.61675">
        <ele>190</ele>
        <time>2020-10-24T10:08:10Z</time>
      </trkpt>
      <trkpt lat="44.79835" lon="1.61673">
        <ele>189.8</ele>
        <time>2020-10-24T10:08:12Z</time>
      </trkpt>
      <trkpt lat="44.79826" lon="1.61663">
        <ele>189.2</ele>
        <time>2020-10-24T10:08:23Z</time>
      </trkpt>
      <trkpt lat="44.7982" lon="1.61659">
        <ele>188.4</ele>
        <time>2020-10-24T10:08:29Z</time>
      </trkpt>
      <trkpt lat="44.79814" lon="1.61652">
        <ele>187.4</ele>
        <time>2020-10-24T10:08:38Z</time>
      </trkpt>
      <trkpt lat="44.79809" lon="1.61645">
        <ele>186.4</ele>
        <time>2020-10-24T10:08:46Z</time>
      </trkpt>
      <trkpt lat="44.79806" lon="1.61644">
        <ele>185.8</ele>
        <time>2020-10-24T10:08:50Z</time>
      </trkpt>
      <trkpt lat="44.79805" lon="1.61644">
        <ele>185.8</ele>
        <time>2020-10-24T10:08:52Z</time>
      </trkpt>
      <trkpt lat="44.79802" lon="1.61641">
        <ele>185.6</ele>
        <time>2020-10-24T10:08:55Z</time>
      </trkpt>
      <trkpt lat="44.79795" lon="1.61639">
        <ele>185.2</ele>
        <time>2020-10-24T10:09:02Z</time>
      </trkpt>
      <trkpt lat="44.79792" lon="1.61632">
        <ele>184.6</ele>
        <time>2020-10-24T10:09:08Z</time>
      </trkpt>
      <trkpt lat="44.79791" lon="1.61629">
        <ele>184.6</ele>
        <time>2020-10-24T10:09:11Z</time>
      </trkpt>
      <trkpt lat="44.79786" lon="1.61617">
        <ele>184.8</ele>
        <time>2020-10-24T10:09:22Z</time>
      </trkpt>
      <trkpt lat="44.79786" lon="1.61617">
        <ele>184.8</ele>
        <time>2020-10-24T10:09:23Z</time>
      </trkpt>
      <trkpt lat="44.79786" lon="1.61617">
        <ele>184.8</ele>
        <time>2020-10-24T10:09:24Z</time>
      </trkpt>
      <trkpt lat="44.79785" lon="1.61618">
        <ele>184.8</ele>
        <time>2020-10-24T10:09:27Z</time>
      </trkpt>
      <trkpt lat="44.79784" lon="1.61616">
        <ele>184.8</ele>
        <time>2020-10-24T10:09:33Z</time>
      </trkpt>
      <trkpt lat="44.79777" lon="1.61611">
        <ele>184.2</ele>
        <time>2020-10-24T10:09:42Z</time>
      </trkpt>
      <trkpt lat="44.79777" lon="1.61614">
        <ele>184</ele>
        <time>2020-10-24T10:09:51Z</time>
      </trkpt>
      <trkpt lat="44.79778" lon="1.61614">
        <ele>184.8</ele>
        <time>2020-10-24T10:10:05Z</time>
      </trkpt>
      <trkpt lat="44.79779" lon="1.61615">
        <ele>184.2</ele>
        <time>2020-10-24T10:10:22Z</time>
      </trkpt>
      <trkpt lat="44.79785" lon="1.6162">
        <ele>184.4</ele>
        <time>2020-10-24T10:10:36Z</time>
      </trkpt>
      <trkpt lat="44.79786" lon="1.61621">
        <ele>184.4</ele>
        <time>2020-10-24T10:10:41Z</time>
      </trkpt>
      <trkpt lat="44.79788" lon="1.61622">
        <ele>184.4</ele>
        <time>2020-10-24T10:10:47Z</time>
      </trkpt>
      <trkpt lat="44.79793" lon="1.61626">
        <ele>184.4</ele>
        <time>2020-10-24T10:10:57Z</time>
      </trkpt>
      <trkpt lat="44.7979" lon="1.61623">
        <ele>184.4</ele>
        <time>2020-10-24T10:11:05Z</time>
      </trkpt>
      <trkpt lat="44.79789" lon="1.61624">
        <ele>184.4</ele>
        <time>2020-10-24T10:11:06Z</time>
      </trkpt>
      <trkpt lat="44.79789" lon="1.61629">
        <ele>184.4</ele>
        <time>2020-10-24T10:11:14Z</time>
      </trkpt>
      <trkpt lat="44.79792" lon="1.61638">
        <ele>184.2</ele>
        <time>2020-10-24T10:11:26Z</time>
      </trkpt>
      <trkpt lat="44.79795" lon="1.61639">
        <ele>185</ele>
        <time>2020-10-24T10:11:40Z</time>
      </trkpt>
      <trkpt lat="44.798" lon="1.61641">
        <ele>185.2</ele>
        <time>2020-10-24T10:11:45Z</time>
      </trkpt>
      <trkpt lat="44.798" lon="1.6164">
        <ele>185.8</ele>
        <time>2020-10-24T10:11:51Z</time>
      </trkpt>
      <trkpt lat="44.79802" lon="1.61649">
        <ele>186.2</ele>
        <time>2020-10-24T10:12:02Z</time>
      </trkpt>
      <trkpt lat="44.79806" lon="1.61657">
        <ele>186.4</ele>
        <time>2020-10-24T10:12:09Z</time>
      </trkpt>
      <trkpt lat="44.79814" lon="1.61662">
        <ele>187.2</ele>
        <time>2020-10-24T10:12:18Z</time>
      </trkpt>
      <trkpt lat="44.79814" lon="1.61663">
        <ele>187.4</ele>
        <time>2020-10-24T10:12:19Z</time>
      </trkpt>
      <trkpt lat="44.79821" lon="1.61673">
        <ele>188.4</ele>
        <time>2020-10-24T10:12:30Z</time>
      </trkpt>
      <trkpt lat="44.79825" lon="1.61674">
        <ele>188.6</ele>
        <time>2020-10-24T10:12:34Z</time>
      </trkpt>
      <trkpt lat="44.79833" lon="1.61681">
        <ele>189.4</ele>
        <time>2020-10-24T10:12:45Z</time>
      </trkpt>
      <trkpt lat="44.79836" lon="1.61682">
        <ele>189.6</ele>
        <time>2020-10-24T10:12:49Z</time>
      </trkpt>
      <trkpt lat="44.79844" lon="1.61691">
        <ele>190</ele>
        <time>2020-10-24T10:13:03Z</time>
      </trkpt>
      <trkpt lat="44.79846" lon="1.61693">
        <ele>190.4</ele>
        <time>2020-10-24T10:13:07Z</time>
      </trkpt>
      <trkpt lat="44.79847" lon="1.61693">
        <ele>190.4</ele>
        <time>2020-10-24T10:13:09Z</time>
      </trkpt>
      <trkpt lat="44.79849" lon="1.61693">
        <ele>190.4</ele>
        <time>2020-10-24T10:13:12Z</time>
      </trkpt>
      <trkpt lat="44.79849" lon="1.61694">
        <ele>190.6</ele>
        <time>2020-10-24T10:13:13Z</time>
      </trkpt>
      <trkpt lat="44.79851" lon="1.61691">
        <ele>190.6</ele>
        <time>2020-10-24T10:13:14Z</time>
      </trkpt>
      <trkpt lat="44.79852" lon="1.61694">
        <ele>190.6</ele>
        <time>2020-10-24T10:13:27Z</time>
      </trkpt>
      <trkpt lat="44.79864" lon="1.61698">
        <ele>190.4</ele>
        <time>2020-10-24T10:13:43Z</time>
      </trkpt>
      <trkpt lat="44.79873" lon="1.61714">
        <ele>190.2</ele>
        <time>2020-10-24T10:13:57Z</time>
      </trkpt>
      <trkpt lat="44.79873" lon="1.61715">
        <ele>190.4</ele>
        <time>2020-10-24T10:13:59Z</time>
      </trkpt>
      <trkpt lat="44.79874" lon="1.61713">
        <ele>190</ele>
        <time>2020-10-24T10:14:04Z</time>
      </trkpt>
      <trkpt lat="44.79875" lon="1.61713">
        <ele>190</ele>
        <time>2020-10-24T10:14:05Z</time>
      </trkpt>
      <trkpt lat="44.79875" lon="1.61712">
        <ele>190</ele>
        <time>2020-10-24T10:14:06Z</time>
      </trkpt>
      <trkpt lat="44.79874" lon="1.61715">
        <ele>190.4</ele>
        <time>2020-10-24T10:14:17Z</time>
      </trkpt>
      <trkpt lat="44.79882" lon="1.61721">
        <ele>190</ele>
        <time>2020-10-24T10:14:27Z</time>
      </trkpt>
      <trkpt lat="44.79886" lon="1.61728">
        <ele>189.6</ele>
        <time>2020-10-24T10:14:36Z</time>
      </trkpt>
      <trkpt lat="44.79887" lon="1.61729">
        <ele>189.4</ele>
        <time>2020-10-24T10:14:37Z</time>
      </trkpt>
      <trkpt lat="44.79894" lon="1.61746">
        <ele>189.2</ele>
        <time>2020-10-24T10:14:51Z</time>
      </trkpt>
      <trkpt lat="44.79895" lon="1.61749">
        <ele>189</ele>
        <time>2020-10-24T10:14:55Z</time>
      </trkpt>
      <trkpt lat="44.79896" lon="1.61752">
        <ele>189</ele>
        <time>2020-10-24T10:15:03Z</time>
      </trkpt>
      <trkpt lat="44.79898" lon="1.61753">
        <ele>189.2</ele>
        <time>2020-10-24T10:15:19Z</time>
      </trkpt>
      <trkpt lat="44.79899" lon="1.61757">
        <ele>188.8</ele>
        <time>2020-10-24T10:15:32Z</time>
      </trkpt>
      <trkpt lat="44.79898" lon="1.61758">
        <ele>188.8</ele>
        <time>2020-10-24T10:15:33Z</time>
      </trkpt>
      <trkpt lat="44.79899" lon="1.6176">
        <ele>188.8</ele>
        <time>2020-10-24T10:15:35Z</time>
      </trkpt>
      <trkpt lat="44.79902" lon="1.61762">
        <ele>188.4</ele>
        <time>2020-10-24T10:15:43Z</time>
      </trkpt>
      <trkpt lat="44.79902" lon="1.61763">
        <ele>188.4</ele>
        <time>2020-10-24T10:15:45Z</time>
      </trkpt>
      <trkpt lat="44.79906" lon="1.61767">
        <ele>187.6</ele>
        <time>2020-10-24T10:15:59Z</time>
      </trkpt>
      <trkpt lat="44.79917" lon="1.61767">
        <ele>187.6</ele>
        <time>2020-10-24T10:16:13Z</time>
      </trkpt>
      <trkpt lat="44.79919" lon="1.61765">
        <ele>187.4</ele>
        <time>2020-10-24T10:16:15Z</time>
      </trkpt>
      <trkpt lat="44.7992" lon="1.61764">
        <ele>187.4</ele>
        <time>2020-10-24T10:16:23Z</time>
      </trkpt>
      <trkpt lat="44.79914" lon="1.61765">
        <ele>187.6</ele>
        <time>2020-10-24T10:16:32Z</time>
      </trkpt>
      <trkpt lat="44.79914" lon="1.6177">
        <ele>186.4</ele>
        <time>2020-10-24T10:16:40Z</time>
      </trkpt>
      <trkpt lat="44.79916" lon="1.61772">
        <ele>185.4</ele>
        <time>2020-10-24T10:16:44Z</time>
      </trkpt>
      <trkpt lat="44.79916" lon="1.61772">
        <ele>185.2</ele>
        <time>2020-10-24T10:16:45Z</time>
      </trkpt>
      <trkpt lat="44.79919" lon="1.61775">
        <ele>184</ele>
        <time>2020-10-24T10:16:50Z</time>
      </trkpt>
      <trkpt lat="44.79919" lon="1.61777">
        <ele>183</ele>
        <time>2020-10-24T10:16:53Z</time>
      </trkpt>
      <trkpt lat="44.79919" lon="1.61779">
        <ele>182</ele>
        <time>2020-10-24T10:16:56Z</time>
      </trkpt>
      <trkpt lat="44.79919" lon="1.6178">
        <ele>181.8</ele>
        <time>2020-10-24T10:16:57Z</time>
      </trkpt>
      <trkpt lat="44.7992" lon="1.61778">
        <ele>181.4</ele>
        <time>2020-10-24T10:17:06Z</time>
      </trkpt>
      <trkpt lat="44.7992" lon="1.61778">
        <ele>181.6</ele>
        <time>2020-10-24T10:17:19Z</time>
      </trkpt>
      <trkpt lat="44.79918" lon="1.61776">
        <ele>180.8</ele>
        <time>2020-10-24T10:17:25Z</time>
      </trkpt>
      <trkpt lat="44.79917" lon="1.61774">
        <ele>179.8</ele>
        <time>2020-10-24T10:17:30Z</time>
      </trkpt>
      <trkpt lat="44.79917" lon="1.61774">
        <ele>179.6</ele>
        <time>2020-10-24T10:17:32Z</time>
      </trkpt>
      <trkpt lat="44.79915" lon="1.61772">
        <ele>179.2</ele>
        <time>2020-10-24T10:17:42Z</time>
      </trkpt>
      <trkpt lat="44.79913" lon="1.61772">
        <ele>178.4</ele>
        <time>2020-10-24T10:17:45Z</time>
      </trkpt>
      <trkpt lat="44.7991" lon="1.61773">
        <ele>177.2</ele>
        <time>2020-10-24T10:17:49Z</time>
      </trkpt>
      <trkpt lat="44.79909" lon="1.61774">
        <ele>176.2</ele>
        <time>2020-10-24T10:17:52Z</time>
      </trkpt>
      <trkpt lat="44.79908" lon="1.61773">
        <ele>176</ele>
        <time>2020-10-24T10:17:53Z</time>
      </trkpt>
      <trkpt lat="44.79908" lon="1.61773">
        <ele>175.8</ele>
        <time>2020-10-24T10:17:54Z</time>
      </trkpt>
      <trkpt lat="44.79907" lon="1.61773">
        <ele>175</ele>
        <time>2020-10-24T10:17:58Z</time>
      </trkpt>
      <trkpt lat="44.79905" lon="1.61775">
        <ele>174</ele>
        <time>2020-10-24T10:18:04Z</time>
      </trkpt>
      <trkpt lat="44.79903" lon="1.61775">
        <ele>174</ele>
        <time>2020-10-24T10:18:07Z</time>
      </trkpt>
      <trkpt lat="44.79901" lon="1.61774">
        <ele>172.8</ele>
        <time>2020-10-24T10:18:10Z</time>
      </trkpt>
      <trkpt lat="44.79899" lon="1.61774">
        <ele>171.6</ele>
        <time>2020-10-24T10:18:13Z</time>
      </trkpt>
      <trkpt lat="44.79897" lon="1.61774">
        <ele>170.6</ele>
        <time>2020-10-24T10:18:16Z</time>
      </trkpt>
      <trkpt lat="44.79897" lon="1.61773">
        <ele>170.2</ele>
        <time>2020-10-24T10:18:17Z</time>
      </trkpt>
      <trkpt lat="44.79896" lon="1.61773">
        <ele>169.4</ele>
        <time>2020-10-24T10:18:19Z</time>
      </trkpt>
      <trkpt lat="44.79895" lon="1.61773">
        <ele>169.2</ele>
        <time>2020-10-24T10:18:20Z</time>
      </trkpt>
      <trkpt lat="44.79893" lon="1.61772">
        <ele>168.2</ele>
        <time>2020-10-24T10:18:24Z</time>
      </trkpt>
      <trkpt lat="44.79891" lon="1.61768">
        <ele>167.6</ele>
        <time>2020-10-24T10:18:29Z</time>
      </trkpt>
      <trkpt lat="44.79891" lon="1.61767">
        <ele>167</ele>
        <time>2020-10-24T10:18:31Z</time>
      </trkpt>
      <trkpt lat="44.79891" lon="1.61768">
        <ele>166</ele>
        <time>2020-10-24T10:18:38Z</time>
      </trkpt>
      <trkpt lat="44.7989" lon="1.61769">
        <ele>165.6</ele>
        <time>2020-10-24T10:18:40Z</time>
      </trkpt>
      <trkpt lat="44.7989" lon="1.6177">
        <ele>164.8</ele>
        <time>2020-10-24T10:18:42Z</time>
      </trkpt>
      <trkpt lat="44.79887" lon="1.61772">
        <ele>164.2</ele>
        <time>2020-10-24T10:18:56Z</time>
      </trkpt>
      <trkpt lat="44.79895" lon="1.61756">
        <ele>163.8</ele>
        <time>2020-10-24T10:19:08Z</time>
      </trkpt>
      <trkpt lat="44.79895" lon="1.61756">
        <ele>163.8</ele>
        <time>2020-10-24T10:19:09Z</time>
      </trkpt>
      <trkpt lat="44.79895" lon="1.61756">
        <ele>163.8</ele>
        <time>2020-10-24T10:19:10Z</time>
      </trkpt>
      <trkpt lat="44.79889" lon="1.61754">
        <ele>163.6</ele>
        <time>2020-10-24T10:19:21Z</time>
      </trkpt>
      <trkpt lat="44.79883" lon="1.61756">
        <ele>163.4</ele>
        <time>2020-10-24T10:19:35Z</time>
      </trkpt>
      <trkpt lat="44.79876" lon="1.6176">
        <ele>163</ele>
        <time>2020-10-24T10:19:51Z</time>
      </trkpt>
      <trkpt lat="44.79872" lon="1.6175">
        <ele>162.8</ele>
        <time>2020-10-24T10:20:02Z</time>
      </trkpt>
      <trkpt lat="44.79871" lon="1.6175">
        <ele>162.8</ele>
        <time>2020-10-24T10:20:04Z</time>
      </trkpt>
      <trkpt lat="44.7987" lon="1.6175">
        <ele>162.8</ele>
        <time>2020-10-24T10:20:05Z</time>
      </trkpt>
      <trkpt lat="44.79868" lon="1.6175">
        <ele>162.8</ele>
        <time>2020-10-24T10:20:08Z</time>
      </trkpt>
      <trkpt lat="44.79862" lon="1.61753">
        <ele>162.6</ele>
        <time>2020-10-24T10:20:13Z</time>
      </trkpt>
      <trkpt lat="44.79862" lon="1.61751">
        <ele>162.6</ele>
        <time>2020-10-24T10:20:16Z</time>
      </trkpt>
      <trkpt lat="44.7986" lon="1.61752">
        <ele>162.4</ele>
        <time>2020-10-24T10:20:19Z</time>
      </trkpt>
      <trkpt lat="44.79861" lon="1.61751">
        <ele>162.4</ele>
        <time>2020-10-24T10:20:20Z</time>
      </trkpt>
      <trkpt lat="44.7986" lon="1.61751">
        <ele>162.4</ele>
        <time>2020-10-24T10:20:22Z</time>
      </trkpt>
      <trkpt lat="44.79859" lon="1.61749">
        <ele>162.4</ele>
        <time>2020-10-24T10:20:26Z</time>
      </trkpt>
      <trkpt lat="44.79856" lon="1.61749">
        <ele>162</ele>
        <time>2020-10-24T10:20:31Z</time>
      </trkpt>
      <trkpt lat="44.79855" lon="1.61749">
        <ele>162</ele>
        <time>2020-10-24T10:20:34Z</time>
      </trkpt>
      <trkpt lat="44.79851" lon="1.61749">
        <ele>161.8</ele>
        <time>2020-10-24T10:20:38Z</time>
      </trkpt>
      <trkpt lat="44.79851" lon="1.61748">
        <ele>161.6</ele>
        <time>2020-10-24T10:20:39Z</time>
      </trkpt>
      <trkpt lat="44.79847" lon="1.61747">
        <ele>161.4</ele>
        <time>2020-10-24T10:20:44Z</time>
      </trkpt>
      <trkpt lat="44.79843" lon="1.61741">
        <ele>161</ele>
        <time>2020-10-24T10:20:52Z</time>
      </trkpt>
      <trkpt lat="44.79841" lon="1.6174">
        <ele>161.2</ele>
        <time>2020-10-24T10:20:56Z</time>
      </trkpt>
      <trkpt lat="44.79841" lon="1.61739">
        <ele>161.2</ele>
        <time>2020-10-24T10:20:57Z</time>
      </trkpt>
      <trkpt lat="44.79837" lon="1.61733">
        <ele>160.6</ele>
        <time>2020-10-24T10:21:05Z</time>
      </trkpt>
      <trkpt lat="44.79833" lon="1.6173">
        <ele>160</ele>
        <time>2020-10-24T10:21:11Z</time>
      </trkpt>
      <trkpt lat="44.79832" lon="1.61729">
        <ele>159.8</ele>
        <time>2020-10-24T10:21:13Z</time>
      </trkpt>
      <trkpt lat="44.7983" lon="1.61727">
        <ele>159.4</ele>
        <time>2020-10-24T10:21:16Z</time>
      </trkpt>
      <trkpt lat="44.79829" lon="1.61726">
        <ele>159.2</ele>
        <time>2020-10-24T10:21:18Z</time>
      </trkpt>
      <trkpt lat="44.79828" lon="1.61726">
        <ele>158.4</ele>
        <time>2020-10-24T10:21:23Z</time>
      </trkpt>
      <trkpt lat="44.79828" lon="1.61721">
        <ele>158</ele>
        <time>2020-10-24T10:21:36Z</time>
      </trkpt>
      <trkpt lat="44.79826" lon="1.6172">
        <ele>157.8</ele>
        <time>2020-10-24T10:21:47Z</time>
      </trkpt>
      <trkpt lat="44.79825" lon="1.61719">
        <ele>157.4</ele>
        <time>2020-10-24T10:21:49Z</time>
      </trkpt>
      <trkpt lat="44.79823" lon="1.61715">
        <ele>156.4</ele>
        <time>2020-10-24T10:21:58Z</time>
      </trkpt>
      <trkpt lat="44.79822" lon="1.61715">
        <ele>156.2</ele>
        <time>2020-10-24T10:21:59Z</time>
      </trkpt>
      <trkpt lat="44.79817" lon="1.61711">
        <ele>155.2</ele>
        <time>2020-10-24T10:22:06Z</time>
      </trkpt>
      <trkpt lat="44.79819" lon="1.61705">
        <ele>154.6</ele>
        <time>2020-10-24T10:22:10Z</time>
      </trkpt>
      <trkpt lat="44.79819" lon="1.61705">
        <ele>154.4</ele>
        <time>2020-10-24T10:22:11Z</time>
      </trkpt>
      <trkpt lat="44.79816" lon="1.61703">
        <ele>154.2</ele>
        <time>2020-10-24T10:22:16Z</time>
      </trkpt>
      <trkpt lat="44.7981" lon="1.61702">
        <ele>153</ele>
        <time>2020-10-24T10:22:23Z</time>
      </trkpt>
      <trkpt lat="44.79805" lon="1.61702">
        <ele>152.2</ele>
        <time>2020-10-24T10:22:28Z</time>
      </trkpt>
      <trkpt lat="44.79803" lon="1.61702">
        <ele>152</ele>
        <time>2020-10-24T10:22:30Z</time>
      </trkpt>
      <trkpt lat="44.79797" lon="1.61701">
        <ele>151</ele>
        <time>2020-10-24T10:22:37Z</time>
      </trkpt>
      <trkpt lat="44.79795" lon="1.61701">
        <ele>150.6</ele>
        <time>2020-10-24T10:22:39Z</time>
      </trkpt>
      <trkpt lat="44.79792" lon="1.61701">
        <ele>149.8</ele>
        <time>2020-10-24T10:22:42Z</time>
      </trkpt>
      <trkpt lat="44.79786" lon="1.61696">
        <ele>148.8</ele>
        <time>2020-10-24T10:22:50Z</time>
      </trkpt>
      <trkpt lat="44.79781" lon="1.61693">
        <ele>148</ele>
        <time>2020-10-24T10:22:56Z</time>
      </trkpt>
      <trkpt lat="44.7978" lon="1.61693">
        <ele>147.8</ele>
        <time>2020-10-24T10:22:58Z</time>
      </trkpt>
      <trkpt lat="44.79779" lon="1.61692">
        <ele>147.4</ele>
        <time>2020-10-24T10:23:00Z</time>
      </trkpt>
      <trkpt lat="44.79778" lon="1.61691">
        <ele>147.4</ele>
        <time>2020-10-24T10:23:02Z</time>
      </trkpt>
      <trkpt lat="44.79778" lon="1.61684">
        <ele>147.2</ele>
        <time>2020-10-24T10:23:07Z</time>
      </trkpt>
      <trkpt lat="44.79774" lon="1.61683">
        <ele>146.8</ele>
        <time>2020-10-24T10:23:11Z</time>
      </trkpt>
      <trkpt lat="44.79773" lon="1.61682">
        <ele>146.6</ele>
        <time>2020-10-24T10:23:13Z</time>
      </trkpt>
      <trkpt lat="44.79772" lon="1.61677">
        <ele>146.2</ele>
        <time>2020-10-24T10:23:19Z</time>
      </trkpt>
      <trkpt lat="44.7977" lon="1.61675">
        <ele>146</ele>
        <time>2020-10-24T10:23:21Z</time>
      </trkpt>
      <trkpt lat="44.7977" lon="1.61673">
        <ele>145.8</ele>
        <time>2020-10-24T10:23:25Z</time>
      </trkpt>
      <trkpt lat="44.79769" lon="1.61672">
        <ele>145.6</ele>
        <time>2020-10-24T10:23:27Z</time>
      </trkpt>
      <trkpt lat="44.79769" lon="1.6167">
        <ele>145.4</ele>
        <time>2020-10-24T10:23:29Z</time>
      </trkpt>
      <trkpt lat="44.79763" lon="1.61658">
        <ele>144.6</ele>
        <time>2020-10-24T10:23:42Z</time>
      </trkpt>
      <trkpt lat="44.79762" lon="1.61657">
        <ele>144.4</ele>
        <time>2020-10-24T10:23:43Z</time>
      </trkpt>
      <trkpt lat="44.7976" lon="1.61654">
        <ele>144.2</ele>
        <time>2020-10-24T10:23:47Z</time>
      </trkpt>
      <trkpt lat="44.79751" lon="1.61647">
        <ele>143.8</ele>
        <time>2020-10-24T10:23:58Z</time>
      </trkpt>
      <trkpt lat="44.79751" lon="1.61647">
        <ele>143.8</ele>
        <time>2020-10-24T10:23:59Z</time>
      </trkpt>
      <trkpt lat="44.7975" lon="1.61647">
        <ele>143.8</ele>
        <time>2020-10-24T10:24:02Z</time>
      </trkpt>
      <trkpt lat="44.79748" lon="1.61642">
        <ele>143.6</ele>
        <time>2020-10-24T10:24:08Z</time>
      </trkpt>
      <trkpt lat="44.79747" lon="1.61642">
        <ele>143.4</ele>
        <time>2020-10-24T10:24:09Z</time>
      </trkpt>
      <trkpt lat="44.79743" lon="1.61635">
        <ele>143.2</ele>
        <time>2020-10-24T10:24:21Z</time>
      </trkpt>
      <trkpt lat="44.79742" lon="1.61636">
        <ele>142.8</ele>
        <time>2020-10-24T10:24:34Z</time>
      </trkpt>
      <trkpt lat="44.79749" lon="1.61646">
        <ele>143.2</ele>
        <time>2020-10-24T10:24:46Z</time>
      </trkpt>
      <trkpt lat="44.79759" lon="1.61659">
        <ele>144.4</ele>
        <time>2020-10-24T10:25:02Z</time>
      </trkpt>
      <trkpt lat="44.79761" lon="1.61662">
        <ele>144.6</ele>
        <time>2020-10-24T10:25:05Z</time>
      </trkpt>
      <trkpt lat="44.79763" lon="1.61664">
        <ele>144.8</ele>
        <time>2020-10-24T10:25:08Z</time>
      </trkpt>
      <trkpt lat="44.79768" lon="1.61669">
        <ele>145.4</ele>
        <time>2020-10-24T10:25:15Z</time>
      </trkpt>
      <trkpt lat="44.79771" lon="1.61674">
        <ele>145.8</ele>
        <time>2020-10-24T10:25:21Z</time>
      </trkpt>
      <trkpt lat="44.79773" lon="1.61681">
        <ele>146.6</ele>
        <time>2020-10-24T10:25:28Z</time>
      </trkpt>
      <trkpt lat="44.79773" lon="1.61683">
        <ele>146.4</ele>
        <time>2020-10-24T10:25:30Z</time>
      </trkpt>
      <trkpt lat="44.79774" lon="1.61686">
        <ele>146.8</ele>
        <time>2020-10-24T10:25:33Z</time>
      </trkpt>
      <trkpt lat="44.79776" lon="1.61692">
        <ele>147.8</ele>
        <time>2020-10-24T10:25:40Z</time>
      </trkpt>
      <trkpt lat="44.79777" lon="1.61692">
        <ele>148</ele>
        <time>2020-10-24T10:25:42Z</time>
      </trkpt>
      <trkpt lat="44.79784" lon="1.61694">
        <ele>148.8</ele>
        <time>2020-10-24T10:25:49Z</time>
      </trkpt>
      <trkpt lat="44.79786" lon="1.61696">
        <ele>149</ele>
        <time>2020-10-24T10:25:52Z</time>
      </trkpt>
      <trkpt lat="44.79792" lon="1.61701">
        <ele>149.8</ele>
        <time>2020-10-24T10:25:59Z</time>
      </trkpt>
      <trkpt lat="44.79798" lon="1.61704">
        <ele>151</ele>
        <time>2020-10-24T10:26:05Z</time>
      </trkpt>
      <trkpt lat="44.798" lon="1.61707">
        <ele>152</ele>
        <time>2020-10-24T10:26:09Z</time>
      </trkpt>
      <trkpt lat="44.79801" lon="1.61708">
        <ele>152.2</ele>
        <time>2020-10-24T10:26:10Z</time>
      </trkpt>
      <trkpt lat="44.79807" lon="1.6171">
        <ele>153.2</ele>
        <time>2020-10-24T10:26:17Z</time>
      </trkpt>
      <trkpt lat="44.79811" lon="1.61713">
        <ele>153.8</ele>
        <time>2020-10-24T10:26:22Z</time>
      </trkpt>
      <trkpt lat="44.79812" lon="1.61713">
        <ele>154</ele>
        <time>2020-10-24T10:26:23Z</time>
      </trkpt>
      <trkpt lat="44.79814" lon="1.61714">
        <ele>154.4</ele>
        <time>2020-10-24T10:26:25Z</time>
      </trkpt>
      <trkpt lat="44.79819" lon="1.61718">
        <ele>155.6</ele>
        <time>2020-10-24T10:26:31Z</time>
      </trkpt>
      <trkpt lat="44.79823" lon="1.61723">
        <ele>156.8</ele>
        <time>2020-10-24T10:26:37Z</time>
      </trkpt>
      <trkpt lat="44.79827" lon="1.61727">
        <ele>157.8</ele>
        <time>2020-10-24T10:26:43Z</time>
      </trkpt>
      <trkpt lat="44.79832" lon="1.61731">
        <ele>158.8</ele>
        <time>2020-10-24T10:26:50Z</time>
      </trkpt>
      <trkpt lat="44.79833" lon="1.61732">
        <ele>159</ele>
        <time>2020-10-24T10:26:51Z</time>
      </trkpt>
      <trkpt lat="44.79837" lon="1.61734">
        <ele>160.2</ele>
        <time>2020-10-24T10:26:56Z</time>
      </trkpt>
      <trkpt lat="44.79842" lon="1.61737">
        <ele>161.2</ele>
        <time>2020-10-24T10:27:03Z</time>
      </trkpt>
      <trkpt lat="44.79844" lon="1.61737">
        <ele>161.4</ele>
        <time>2020-10-24T10:27:04Z</time>
      </trkpt>
      <trkpt lat="44.7985" lon="1.6174">
        <ele>162.2</ele>
        <time>2020-10-24T10:27:13Z</time>
      </trkpt>
      <trkpt lat="44.7985" lon="1.61741">
        <ele>162.4</ele>
        <time>2020-10-24T10:27:14Z</time>
      </trkpt>
      <trkpt lat="44.7985" lon="1.61741">
        <ele>162.4</ele>
        <time>2020-10-24T10:27:15Z</time>
      </trkpt>
      <trkpt lat="44.79852" lon="1.61743">
        <ele>162.8</ele>
        <time>2020-10-24T10:27:19Z</time>
      </trkpt>
      <trkpt lat="44.79857" lon="1.61747">
        <ele>163</ele>
        <time>2020-10-24T10:27:27Z</time>
      </trkpt>
      <trkpt lat="44.79865" lon="1.61758">
        <ele>163.2</ele>
        <time>2020-10-24T10:27:40Z</time>
      </trkpt>
      <trkpt lat="44.79869" lon="1.61757">
        <ele>163.4</ele>
        <time>2020-10-24T10:27:44Z</time>
      </trkpt>
      <trkpt lat="44.79873" lon="1.61767">
        <ele>164</ele>
        <time>2020-10-24T10:27:54Z</time>
      </trkpt>
      <trkpt lat="44.79875" lon="1.61774">
        <ele>164.4</ele>
        <time>2020-10-24T10:28:01Z</time>
      </trkpt>
      <trkpt lat="44.79881" lon="1.61781">
        <ele>165</ele>
        <time>2020-10-24T10:28:13Z</time>
      </trkpt>
      <trkpt lat="44.79892" lon="1.61784">
        <ele>165.4</ele>
        <time>2020-10-24T10:28:25Z</time>
      </trkpt>
      <trkpt lat="44.79894" lon="1.61786">
        <ele>165.6</ele>
        <time>2020-10-24T10:28:28Z</time>
      </trkpt>
      <trkpt lat="44.79907" lon="1.61781">
        <ele>165.6</ele>
        <time>2020-10-24T10:28:44Z</time>
      </trkpt>
      <trkpt lat="44.79916" lon="1.61779">
        <ele>165.6</ele>
        <time>2020-10-24T10:28:57Z</time>
      </trkpt>
      <trkpt lat="44.79919" lon="1.61783">
        <ele>165</ele>
        <time>2020-10-24T10:29:10Z</time>
      </trkpt>
      <trkpt lat="44.79925" lon="1.61786">
        <ele>164.8</ele>
        <time>2020-10-24T10:29:22Z</time>
      </trkpt>
      <trkpt lat="44.79924" lon="1.61803">
        <ele>164.8</ele>
        <time>2020-10-24T10:29:35Z</time>
      </trkpt>
      <trkpt lat="44.79927" lon="1.61797">
        <ele>164.8</ele>
        <time>2020-10-24T10:29:52Z</time>
      </trkpt>
      <trkpt lat="44.79927" lon="1.618">
        <ele>165</ele>
        <time>2020-10-24T10:30:04Z</time>
      </trkpt>
      <trkpt lat="44.7993" lon="1.61797">
        <ele>165</ele>
        <time>2020-10-24T10:30:22Z</time>
      </trkpt>
      <trkpt lat="44.7993" lon="1.61797">
        <ele>164.4</ele>
        <time>2020-10-24T10:30:42Z</time>
      </trkpt>
      <trkpt lat="44.7993" lon="1.61797">
        <ele>164.6</ele>
        <time>2020-10-24T10:37:01Z</time>
      </trkpt>
      <trkpt lat="44.79939" lon="1.61816">
        <ele>164.6</ele>
        <time>2020-10-24T10:38:11Z</time>
      </trkpt>
      <trkpt lat="44.7995" lon="1.61817">
        <ele>164.6</ele>
        <time>2020-10-24T10:38:27Z</time>
      </trkpt>
      <trkpt lat="44.79955" lon="1.61814">
        <ele>164.6</ele>
        <time>2020-10-24T10:38:41Z</time>
      </trkpt>
      <trkpt lat="44.79961" lon="1.61811">
        <ele>164.6</ele>
        <time>2020-10-24T10:38:54Z</time>
      </trkpt>
      <trkpt lat="44.79962" lon="1.61819">
        <ele>164.6</ele>
        <time>2020-10-24T10:39:05Z</time>
      </trkpt>
      <trkpt lat="44.7996" lon="1.6182">
        <ele>164.6</ele>
        <time>2020-10-24T10:39:21Z</time>
      </trkpt>
      <trkpt lat="44.79961" lon="1.61828">
        <ele>164.6</ele>
        <time>2020-10-24T10:39:46Z</time>
      </trkpt>
      <trkpt lat="44.79967" lon="1.61816">
        <ele>164.6</ele>
        <time>2020-10-24T10:45:24Z</time>
      </trkpt>
      <trkpt lat="44.79975" lon="1.61819">
        <ele>164.6</ele>
        <time>2020-10-24T10:45:35Z</time>
      </trkpt>
      <trkpt lat="44.79976" lon="1.6182">
        <ele>164.4</ele>
        <time>2020-10-24T10:45:36Z</time>
      </trkpt>
      <trkpt lat="44.79976" lon="1.6182">
        <ele>164.2</ele>
        <time>2020-10-24T10:45:37Z</time>
      </trkpt>
      <trkpt lat="44.79977" lon="1.6182">
        <ele>163.8</ele>
        <time>2020-10-24T10:45:41Z</time>
      </trkpt>
      <trkpt lat="44.79977" lon="1.61822">
        <ele>163.8</ele>
        <time>2020-10-24T10:45:55Z</time>
      </trkpt>
      <trkpt lat="44.79979" lon="1.61827">
        <ele>164.2</ele>
        <time>2020-10-24T10:46:09Z</time>
      </trkpt>
      <trkpt lat="44.79983" lon="1.6183">
        <ele>164.2</ele>
        <time>2020-10-24T10:46:27Z</time>
      </trkpt>
      <trkpt lat="44.79983" lon="1.61829">
        <ele>164.2</ele>
        <time>2020-10-24T10:46:45Z</time>
      </trkpt>
      <trkpt lat="44.79983" lon="1.6183">
        <ele>164</ele>
        <time>2020-10-24T10:47:01Z</time>
      </trkpt>
      <trkpt lat="44.79988" lon="1.61833">
        <ele>164.4</ele>
        <time>2020-10-24T10:47:13Z</time>
      </trkpt>
      <trkpt lat="44.79998" lon="1.61832">
        <ele>165.4</ele>
        <time>2020-10-24T10:47:25Z</time>
      </trkpt>
      <trkpt lat="44.8" lon="1.61832">
        <ele>165.4</ele>
        <time>2020-10-24T10:47:28Z</time>
      </trkpt>
      <trkpt lat="44.80001" lon="1.61833">
        <ele>165.6</ele>
        <time>2020-10-24T10:47:30Z</time>
      </trkpt>
      <trkpt lat="44.80003" lon="1.61833">
        <ele>165.8</ele>
        <time>2020-10-24T10:47:32Z</time>
      </trkpt>
      <trkpt lat="44.80006" lon="1.61833">
        <ele>166</ele>
        <time>2020-10-24T10:47:35Z</time>
      </trkpt>
      <trkpt lat="44.80007" lon="1.61833">
        <ele>166</ele>
        <time>2020-10-24T10:47:37Z</time>
      </trkpt>
      <trkpt lat="44.80008" lon="1.61833">
        <ele>166.2</ele>
        <time>2020-10-24T10:47:39Z</time>
      </trkpt>
      <trkpt lat="44.8001" lon="1.61833">
        <ele>166.2</ele>
        <time>2020-10-24T10:47:41Z</time>
      </trkpt>
      <trkpt lat="44.80011" lon="1.61833">
        <ele>166.4</ele>
        <time>2020-10-24T10:47:43Z</time>
      </trkpt>
      <trkpt lat="44.8001" lon="1.61836">
        <ele>166.4</ele>
        <time>2020-10-24T10:47:46Z</time>
      </trkpt>
      <trkpt lat="44.80009" lon="1.61837">
        <ele>166.4</ele>
        <time>2020-10-24T10:47:48Z</time>
      </trkpt>
      <trkpt lat="44.80009" lon="1.61838">
        <ele>166.4</ele>
        <time>2020-10-24T10:47:53Z</time>
      </trkpt>
      <trkpt lat="44.8001" lon="1.61835">
        <ele>166.4</ele>
        <time>2020-10-24T10:48:02Z</time>
      </trkpt>
      <trkpt lat="44.80011" lon="1.61835">
        <ele>166.6</ele>
        <time>2020-10-24T10:48:03Z</time>
      </trkpt>
      <trkpt lat="44.8002" lon="1.61835">
        <ele>167</ele>
        <time>2020-10-24T10:48:15Z</time>
      </trkpt>
      <trkpt lat="44.80025" lon="1.6184">
        <ele>167.4</ele>
        <time>2020-10-24T10:48:26Z</time>
      </trkpt>
      <trkpt lat="44.80028" lon="1.61845">
        <ele>167.6</ele>
        <time>2020-10-24T10:48:32Z</time>
      </trkpt>
      <trkpt lat="44.80029" lon="1.61846">
        <ele>167.6</ele>
        <time>2020-10-24T10:48:34Z</time>
      </trkpt>
      <trkpt lat="44.8003" lon="1.61847">
        <ele>167.8</ele>
        <time>2020-10-24T10:48:36Z</time>
      </trkpt>
      <trkpt lat="44.80033" lon="1.61847">
        <ele>167.8</ele>
        <time>2020-10-24T10:48:38Z</time>
      </trkpt>
      <trkpt lat="44.80037" lon="1.61848">
        <ele>167.8</ele>
        <time>2020-10-24T10:48:44Z</time>
      </trkpt>
      <trkpt lat="44.80037" lon="1.61849">
        <ele>167.8</ele>
        <time>2020-10-24T10:48:45Z</time>
      </trkpt>
      <trkpt lat="44.80044" lon="1.61852">
        <ele>168.2</ele>
        <time>2020-10-24T10:48:53Z</time>
      </trkpt>
      <trkpt lat="44.80046" lon="1.61853">
        <ele>168.2</ele>
        <time>2020-10-24T10:48:55Z</time>
      </trkpt>
      <trkpt lat="44.80048" lon="1.61853">
        <ele>168</ele>
        <time>2020-10-24T10:48:57Z</time>
      </trkpt>
      <trkpt lat="44.80057" lon="1.6186">
        <ele>168.2</ele>
        <time>2020-10-24T10:49:10Z</time>
      </trkpt>
      <trkpt lat="44.8006" lon="1.61863">
        <ele>168.2</ele>
        <time>2020-10-24T10:49:16Z</time>
      </trkpt>
      <trkpt lat="44.80064" lon="1.61864">
        <ele>168.2</ele>
        <time>2020-10-24T10:49:22Z</time>
      </trkpt>
      <trkpt lat="44.80066" lon="1.61865">
        <ele>168.2</ele>
        <time>2020-10-24T10:49:23Z</time>
      </trkpt>
      <trkpt lat="44.80068" lon="1.61867">
        <ele>168.2</ele>
        <time>2020-10-24T10:49:27Z</time>
      </trkpt>
      <trkpt lat="44.80069" lon="1.61868">
        <ele>168.4</ele>
        <time>2020-10-24T10:49:29Z</time>
      </trkpt>
      <trkpt lat="44.80071" lon="1.6187">
        <ele>168.6</ele>
        <time>2020-10-24T10:49:34Z</time>
      </trkpt>
      <trkpt lat="44.80073" lon="1.6187">
        <ele>168.6</ele>
        <time>2020-10-24T10:49:36Z</time>
      </trkpt>
      <trkpt lat="44.80074" lon="1.6187">
        <ele>168.4</ele>
        <time>2020-10-24T10:49:38Z</time>
      </trkpt>
      <trkpt lat="44.80075" lon="1.61871">
        <ele>168.4</ele>
        <time>2020-10-24T10:49:40Z</time>
      </trkpt>
      <trkpt lat="44.80073" lon="1.61877">
        <ele>168.4</ele>
        <time>2020-10-24T10:49:53Z</time>
      </trkpt>
      <trkpt lat="44.80074" lon="1.61878">
        <ele>168.6</ele>
        <time>2020-10-24T10:50:12Z</time>
      </trkpt>
      <trkpt lat="44.80073" lon="1.61879">
        <ele>168.4</ele>
        <time>2020-10-24T10:50:26Z</time>
      </trkpt>
      <trkpt lat="44.80074" lon="1.6188">
        <ele>168.6</ele>
        <time>2020-10-24T10:50:37Z</time>
      </trkpt>
      <trkpt lat="44.80078" lon="1.61875">
        <ele>168.6</ele>
        <time>2020-10-24T10:50:45Z</time>
      </trkpt>
      <trkpt lat="44.8008" lon="1.61874">
        <ele>168.8</ele>
        <time>2020-10-24T10:50:47Z</time>
      </trkpt>
      <trkpt lat="44.80083" lon="1.61875">
        <ele>169</ele>
        <time>2020-10-24T10:50:54Z</time>
      </trkpt>
      <trkpt lat="44.80084" lon="1.61876">
        <ele>168.8</ele>
        <time>2020-10-24T10:50:59Z</time>
      </trkpt>
      <trkpt lat="44.8009" lon="1.61875">
        <ele>169.2</ele>
        <time>2020-10-24T10:51:13Z</time>
      </trkpt>
      <trkpt lat="44.80092" lon="1.61877">
        <ele>169.2</ele>
        <time>2020-10-24T10:51:26Z</time>
      </trkpt>
      <trkpt lat="44.80092" lon="1.6188">
        <ele>169.2</ele>
        <time>2020-10-24T10:51:41Z</time>
      </trkpt>
      <trkpt lat="44.80093" lon="1.61885">
        <ele>169.2</ele>
        <time>2020-10-24T10:51:53Z</time>
      </trkpt>
      <trkpt lat="44.80092" lon="1.61886">
        <ele>169.2</ele>
        <time>2020-10-24T10:52:07Z</time>
      </trkpt>
      <trkpt lat="44.80092" lon="1.61886">
        <ele>169.2</ele>
        <time>2020-10-24T10:52:17Z</time>
      </trkpt>
      <trkpt lat="44.80092" lon="1.61886">
        <ele>169.2</ele>
        <time>2020-10-24T10:52:33Z</time>
      </trkpt>
      <trkpt lat="44.80092" lon="1.61887">
        <ele>169.2</ele>
        <time>2020-10-24T10:52:49Z</time>
      </trkpt>
      <trkpt lat="44.80096" lon="1.61891">
        <ele>169.2</ele>
        <time>2020-10-24T10:52:56Z</time>
      </trkpt>
      <trkpt lat="44.80103" lon="1.61897">
        <ele>169.2</ele>
        <time>2020-10-24T10:53:06Z</time>
      </trkpt>
      <trkpt lat="44.80106" lon="1.619">
        <ele>169.8</ele>
        <time>2020-10-24T10:53:10Z</time>
      </trkpt>
      <trkpt lat="44.8011" lon="1.61903">
        <ele>170.4</ele>
        <time>2020-10-24T10:53:14Z</time>
      </trkpt>
      <trkpt lat="44.80113" lon="1.61906">
        <ele>170.8</ele>
        <time>2020-10-24T10:53:18Z</time>
      </trkpt>
      <trkpt lat="44.80122" lon="1.6192">
        <ele>171.4</ele>
        <time>2020-10-24T10:53:32Z</time>
      </trkpt>
      <trkpt lat="44.80125" lon="1.61922">
        <ele>171.6</ele>
        <time>2020-10-24T10:53:37Z</time>
      </trkpt>
      <trkpt lat="44.80126" lon="1.61922">
        <ele>171.6</ele>
        <time>2020-10-24T10:53:39Z</time>
      </trkpt>
      <trkpt lat="44.80126" lon="1.61922">
        <ele>171.8</ele>
        <time>2020-10-24T10:53:40Z</time>
      </trkpt>
      <trkpt lat="44.80127" lon="1.61922">
        <ele>171.8</ele>
        <time>2020-10-24T10:53:41Z</time>
      </trkpt>
      <trkpt lat="44.8013" lon="1.6192">
        <ele>172</ele>
        <time>2020-10-24T10:53:45Z</time>
      </trkpt>
      <trkpt lat="44.80137" lon="1.61915">
        <ele>171.6</ele>
        <time>2020-10-24T10:54:03Z</time>
      </trkpt>
      <trkpt lat="44.80136" lon="1.61916">
        <ele>171.8</ele>
        <time>2020-10-24T10:54:19Z</time>
      </trkpt>
      <trkpt lat="44.80133" lon="1.61918">
        <ele>171.8</ele>
        <time>2020-10-24T10:54:34Z</time>
      </trkpt>
      <trkpt lat="44.80132" lon="1.61925">
        <ele>172.4</ele>
        <time>2020-10-24T10:54:45Z</time>
      </trkpt>
      <trkpt lat="44.80135" lon="1.61923">
        <ele>172</ele>
        <time>2020-10-24T10:55:04Z</time>
      </trkpt>
      <trkpt lat="44.80132" lon="1.61937">
        <ele>172.2</ele>
        <time>2020-10-24T10:55:13Z</time>
      </trkpt>
      <trkpt lat="44.80132" lon="1.61939">
        <ele>172.2</ele>
        <time>2020-10-24T10:55:15Z</time>
      </trkpt>
      <trkpt lat="44.80132" lon="1.61944">
        <ele>172.4</ele>
        <time>2020-10-24T10:55:18Z</time>
      </trkpt>
      <trkpt lat="44.80135" lon="1.61948">
        <ele>172.6</ele>
        <time>2020-10-24T10:55:23Z</time>
      </trkpt>
      <trkpt lat="44.80136" lon="1.6195">
        <ele>172.8</ele>
        <time>2020-10-24T10:55:25Z</time>
      </trkpt>
      <trkpt lat="44.80136" lon="1.61951">
        <ele>172.8</ele>
        <time>2020-10-24T10:55:27Z</time>
      </trkpt>
      <trkpt lat="44.80137" lon="1.61951">
        <ele>172.8</ele>
        <time>2020-10-24T10:55:28Z</time>
      </trkpt>
      <trkpt lat="44.80137" lon="1.61951">
        <ele>173</ele>
        <time>2020-10-24T10:55:29Z</time>
      </trkpt>
      <trkpt lat="44.80139" lon="1.61951">
        <ele>173</ele>
        <time>2020-10-24T10:55:33Z</time>
      </trkpt>
      <trkpt lat="44.80143" lon="1.61951">
        <ele>173.2</ele>
        <time>2020-10-24T10:55:40Z</time>
      </trkpt>
      <trkpt lat="44.80145" lon="1.61953">
        <ele>173.4</ele>
        <time>2020-10-24T10:55:50Z</time>
      </trkpt>
      <trkpt lat="44.80147" lon="1.61954">
        <ele>173.6</ele>
        <time>2020-10-24T10:56:00Z</time>
      </trkpt>
      <trkpt lat="44.8015" lon="1.61956">
        <ele>173.8</ele>
        <time>2020-10-24T10:56:10Z</time>
      </trkpt>
      <trkpt lat="44.80149" lon="1.61958">
        <ele>173.8</ele>
        <time>2020-10-24T10:56:12Z</time>
      </trkpt>
      <trkpt lat="44.80148" lon="1.61969">
        <ele>174.2</ele>
        <time>2020-10-24T10:56:19Z</time>
      </trkpt>
      <trkpt lat="44.80148" lon="1.61978">
        <ele>174.6</ele>
        <time>2020-10-24T10:56:27Z</time>
      </trkpt>
      <trkpt lat="44.80148" lon="1.6198">
        <ele>175</ele>
        <time>2020-10-24T10:56:30Z</time>
      </trkpt>
      <trkpt lat="44.8015" lon="1.61985">
        <ele>175</ele>
        <time>2020-10-24T10:56:40Z</time>
      </trkpt>
      <trkpt lat="44.80154" lon="1.6199">
        <ele>175.6</ele>
        <time>2020-10-24T10:56:49Z</time>
      </trkpt>
      <trkpt lat="44.80153" lon="1.6199">
        <ele>175.6</ele>
        <time>2020-10-24T10:56:59Z</time>
      </trkpt>
      <trkpt lat="44.80153" lon="1.6199">
        <ele>176</ele>
        <time>2020-10-24T10:57:12Z</time>
      </trkpt>
      <trkpt lat="44.80153" lon="1.6199">
        <ele>176</ele>
        <time>2020-10-24T10:57:14Z</time>
      </trkpt>
      <trkpt lat="44.80153" lon="1.61988">
        <ele>175.6</ele>
        <time>2020-10-24T10:57:21Z</time>
      </trkpt>
      <trkpt lat="44.80152" lon="1.61981">
        <ele>175.4</ele>
        <time>2020-10-24T10:57:29Z</time>
      </trkpt>
      <trkpt lat="44.80153" lon="1.61975">
        <ele>175.2</ele>
        <time>2020-10-24T10:57:35Z</time>
      </trkpt>
      <trkpt lat="44.80151" lon="1.61971">
        <ele>175</ele>
        <time>2020-10-24T10:57:39Z</time>
      </trkpt>
      <trkpt lat="44.8015" lon="1.6197">
        <ele>174.4</ele>
        <time>2020-10-24T10:57:40Z</time>
      </trkpt>
      <trkpt lat="44.80149" lon="1.61969">
        <ele>174</ele>
        <time>2020-10-24T10:57:43Z</time>
      </trkpt>
      <trkpt lat="44.80147" lon="1.61968">
        <ele>174.2</ele>
        <time>2020-10-24T10:57:50Z</time>
      </trkpt>
      <trkpt lat="44.80148" lon="1.6196">
        <ele>173.8</ele>
        <time>2020-10-24T10:57:59Z</time>
      </trkpt>
      <trkpt lat="44.80147" lon="1.61955">
        <ele>173.6</ele>
        <time>2020-10-24T10:58:03Z</time>
      </trkpt>
      <trkpt lat="44.80146" lon="1.61952">
        <ele>173.4</ele>
        <time>2020-10-24T10:58:06Z</time>
      </trkpt>
      <trkpt lat="44.80146" lon="1.61951">
        <ele>173.4</ele>
        <time>2020-10-24T10:58:07Z</time>
      </trkpt>
      <trkpt lat="44.80144" lon="1.61948">
        <ele>173</ele>
        <time>2020-10-24T10:58:11Z</time>
      </trkpt>
      <trkpt lat="44.80137" lon="1.61939">
        <ele>172.4</ele>
        <time>2020-10-24T10:58:22Z</time>
      </trkpt>
      <trkpt lat="44.80136" lon="1.61934">
        <ele>172.2</ele>
        <time>2020-10-24T10:58:27Z</time>
      </trkpt>
      <trkpt lat="44.80134" lon="1.61933">
        <ele>172.2</ele>
        <time>2020-10-24T10:58:31Z</time>
      </trkpt>
      <trkpt lat="44.80131" lon="1.61931">
        <ele>172.2</ele>
        <time>2020-10-24T10:58:33Z</time>
      </trkpt>
      <trkpt lat="44.8013" lon="1.6193">
        <ele>172.2</ele>
        <time>2020-10-24T10:58:35Z</time>
      </trkpt>
      <trkpt lat="44.80129" lon="1.61929">
        <ele>172.4</ele>
        <time>2020-10-24T10:58:37Z</time>
      </trkpt>
      <trkpt lat="44.80128" lon="1.61927">
        <ele>172.4</ele>
        <time>2020-10-24T10:58:40Z</time>
      </trkpt>
      <trkpt lat="44.80126" lon="1.61923">
        <ele>172.2</ele>
        <time>2020-10-24T10:58:53Z</time>
      </trkpt>
      <trkpt lat="44.80122" lon="1.61918">
        <ele>172.2</ele>
        <time>2020-10-24T10:59:14Z</time>
      </trkpt>
      <trkpt lat="44.80109" lon="1.61907">
        <ele>171.6</ele>
        <time>2020-10-24T10:59:29Z</time>
      </trkpt>
      <trkpt lat="44.80106" lon="1.61902">
        <ele>171.4</ele>
        <time>2020-10-24T10:59:34Z</time>
      </trkpt>
      <trkpt lat="44.801" lon="1.61898">
        <ele>169.2</ele>
        <time>2020-10-24T10:59:38Z</time>
      </trkpt>
      <trkpt lat="44.80094" lon="1.61892">
        <ele>168.6</ele>
        <time>2020-10-24T10:59:44Z</time>
      </trkpt>
      <trkpt lat="44.8009" lon="1.61886">
        <ele>168.4</ele>
        <time>2020-10-24T10:59:53Z</time>
      </trkpt>
      <trkpt lat="44.80087" lon="1.61884">
        <ele>168.4</ele>
        <time>2020-10-24T10:59:57Z</time>
      </trkpt>
      <trkpt lat="44.80083" lon="1.61881">
        <ele>168.2</ele>
        <time>2020-10-24T11:00:02Z</time>
      </trkpt>
      <trkpt lat="44.80073" lon="1.61877">
        <ele>167.6</ele>
        <time>2020-10-24T11:00:13Z</time>
      </trkpt>
      <trkpt lat="44.80061" lon="1.61863">
        <ele>167.4</ele>
        <time>2020-10-24T11:00:28Z</time>
      </trkpt>
      <trkpt lat="44.80046" lon="1.61854">
        <ele>167.4</ele>
        <time>2020-10-24T11:00:45Z</time>
      </trkpt>
      <trkpt lat="44.80032" lon="1.61847">
        <ele>167.4</ele>
        <time>2020-10-24T11:00:59Z</time>
      </trkpt>
      <trkpt lat="44.80029" lon="1.61846">
        <ele>167.2</ele>
        <time>2020-10-24T11:01:01Z</time>
      </trkpt>
      <trkpt lat="44.80021" lon="1.6184">
        <ele>167</ele>
        <time>2020-10-24T11:01:13Z</time>
      </trkpt>
      <trkpt lat="44.8002" lon="1.6184">
        <ele>166.8</ele>
        <time>2020-10-24T11:01:15Z</time>
      </trkpt>
      <trkpt lat="44.80016" lon="1.6184">
        <ele>166.8</ele>
        <time>2020-10-24T11:01:19Z</time>
      </trkpt>
      <trkpt lat="44.80015" lon="1.6184">
        <ele>166.8</ele>
        <time>2020-10-24T11:01:21Z</time>
      </trkpt>
      <trkpt lat="44.80012" lon="1.61839">
        <ele>166.6</ele>
        <time>2020-10-24T11:01:26Z</time>
      </trkpt>
      <trkpt lat="44.80012" lon="1.61839">
        <ele>166.4</ele>
        <time>2020-10-24T11:01:39Z</time>
      </trkpt>
      <trkpt lat="44.80012" lon="1.61842">
        <ele>166.4</ele>
        <time>2020-10-24T11:01:54Z</time>
      </trkpt>
      <trkpt lat="44.80013" lon="1.61844">
        <ele>166.4</ele>
        <time>2020-10-24T11:02:05Z</time>
      </trkpt>
      <trkpt lat="44.80011" lon="1.61852">
        <ele>166.4</ele>
        <time>2020-10-24T11:02:15Z</time>
      </trkpt>
      <trkpt lat="44.80011" lon="1.61853">
        <ele>166.6</ele>
        <time>2020-10-24T11:02:30Z</time>
      </trkpt>
      <trkpt lat="44.80016" lon="1.61842">
        <ele>166.4</ele>
        <time>2020-10-24T11:02:41Z</time>
      </trkpt>
      <trkpt lat="44.8001" lon="1.61835">
        <ele>166.4</ele>
        <time>2020-10-24T11:02:51Z</time>
      </trkpt>
      <trkpt lat="44.80008" lon="1.61831">
        <ele>166.2</ele>
        <time>2020-10-24T11:02:58Z</time>
      </trkpt>
      <trkpt lat="44.80001" lon="1.61829">
        <ele>165.6</ele>
        <time>2020-10-24T11:03:07Z</time>
      </trkpt>
      <trkpt lat="44.79995" lon="1.61823">
        <ele>165</ele>
        <time>2020-10-24T11:03:15Z</time>
      </trkpt>
      <trkpt lat="44.79989" lon="1.61821">
        <ele>164.6</ele>
        <time>2020-10-24T11:03:23Z</time>
      </trkpt>
      <trkpt lat="44.79988" lon="1.61819">
        <ele>164.6</ele>
        <time>2020-10-24T11:03:25Z</time>
      </trkpt>
      <trkpt lat="44.79988" lon="1.61818">
        <ele>164.6</ele>
        <time>2020-10-24T11:03:26Z</time>
      </trkpt>
      <trkpt lat="44.79987" lon="1.61814">
        <ele>164.2</ele>
        <time>2020-10-24T11:03:32Z</time>
      </trkpt>
      <trkpt lat="44.79982" lon="1.61814">
        <ele>164.4</ele>
        <time>2020-10-24T11:03:37Z</time>
      </trkpt>
      <trkpt lat="44.7998" lon="1.61815">
        <ele>164.4</ele>
        <time>2020-10-24T11:03:39Z</time>
      </trkpt>
      <trkpt lat="44.79974" lon="1.61818">
        <ele>164.4</ele>
        <time>2020-10-24T11:03:47Z</time>
      </trkpt>
      <trkpt lat="44.79972" lon="1.61819">
        <ele>164.6</ele>
        <time>2020-10-24T11:03:50Z</time>
      </trkpt>
      <trkpt lat="44.79971" lon="1.6182">
        <ele>164.6</ele>
        <time>2020-10-24T11:03:51Z</time>
      </trkpt>
      <trkpt lat="44.79969" lon="1.61819">
        <ele>164.4</ele>
        <time>2020-10-24T11:03:55Z</time>
      </trkpt>
      <trkpt lat="44.79966" lon="1.61817">
        <ele>164.6</ele>
        <time>2020-10-24T11:04:04Z</time>
      </trkpt>
      <trkpt lat="44.79961" lon="1.61815">
        <ele>164.6</ele>
        <time>2020-10-24T11:04:13Z</time>
      </trkpt>
      <trkpt lat="44.79954" lon="1.61811">
        <ele>164.8</ele>
        <time>2020-10-24T11:04:20Z</time>
      </trkpt>
      <trkpt lat="44.79955" lon="1.61811">
        <ele>164.8</ele>
        <time>2020-10-24T11:04:22Z</time>
      </trkpt>
      <trkpt lat="44.79954" lon="1.61811">
        <ele>164.8</ele>
        <time>2020-10-24T11:04:25Z</time>
      </trkpt>
      <trkpt lat="44.79956" lon="1.61812">
        <ele>164.8</ele>
        <time>2020-10-24T11:04:30Z</time>
      </trkpt>
      <trkpt lat="44.79962" lon="1.61816">
        <ele>164.8</ele>
        <time>2020-10-24T11:04:40Z</time>
      </trkpt>
      <trkpt lat="44.79965" lon="1.61815">
        <ele>164.8</ele>
        <time>2020-10-24T11:04:43Z</time>
      </trkpt>
      <trkpt lat="44.7997" lon="1.61815">
        <ele>164.8</ele>
        <time>2020-10-24T11:04:46Z</time>
      </trkpt>
      <trkpt lat="44.79976" lon="1.61816">
        <ele>164.6</ele>
        <time>2020-10-24T11:04:51Z</time>
      </trkpt>
      <trkpt lat="44.79979" lon="1.61815">
        <ele>164.6</ele>
        <time>2020-10-24T11:04:55Z</time>
      </trkpt>
      <trkpt lat="44.79997" lon="1.61825">
        <ele>165.6</ele>
        <time>2020-10-24T11:05:07Z</time>
      </trkpt>
      <trkpt lat="44.80001" lon="1.61828">
        <ele>165.8</ele>
        <time>2020-10-24T11:05:10Z</time>
      </trkpt>
      <trkpt lat="44.80005" lon="1.61832">
        <ele>166.2</ele>
        <time>2020-10-24T11:05:14Z</time>
      </trkpt>
      <trkpt lat="44.80021" lon="1.61836">
        <ele>166.8</ele>
        <time>2020-10-24T11:05:27Z</time>
      </trkpt>
      <trkpt lat="44.80028" lon="1.61837">
        <ele>166.8</ele>
        <time>2020-10-24T11:05:33Z</time>
      </trkpt>
      <trkpt lat="44.80035" lon="1.61839">
        <ele>167.2</ele>
        <time>2020-10-24T11:05:40Z</time>
      </trkpt>
      <trkpt lat="44.80039" lon="1.61843">
        <ele>167.4</ele>
        <time>2020-10-24T11:05:44Z</time>
      </trkpt>
      <trkpt lat="44.80054" lon="1.61853">
        <ele>167.6</ele>
        <time>2020-10-24T11:05:57Z</time>
      </trkpt>
      <trkpt lat="44.8007" lon="1.61865">
        <ele>168</ele>
        <time>2020-10-24T11:06:12Z</time>
      </trkpt>
      <trkpt lat="44.80072" lon="1.61868">
        <ele>167.8</ele>
        <time>2020-10-24T11:06:16Z</time>
      </trkpt>
      <trkpt lat="44.80073" lon="1.61868">
        <ele>167.6</ele>
        <time>2020-10-24T11:06:18Z</time>
      </trkpt>
      <trkpt lat="44.80075" lon="1.61869">
        <ele>167.6</ele>
        <time>2020-10-24T11:06:21Z</time>
      </trkpt>
      <trkpt lat="44.80077" lon="1.6187">
        <ele>167.8</ele>
        <time>2020-10-24T11:06:23Z</time>
      </trkpt>
      <trkpt lat="44.80081" lon="1.61877">
        <ele>168</ele>
        <time>2020-10-24T11:06:30Z</time>
      </trkpt>
      <trkpt lat="44.80082" lon="1.61879">
        <ele>168.2</ele>
        <time>2020-10-24T11:06:32Z</time>
      </trkpt>
      <trkpt lat="44.80089" lon="1.61884">
        <ele>168.8</ele>
        <time>2020-10-24T11:06:43Z</time>
      </trkpt>
      <trkpt lat="44.80088" lon="1.61884">
        <ele>168.8</ele>
        <time>2020-10-24T11:06:44Z</time>
      </trkpt>
      <trkpt lat="44.8009" lon="1.61887">
        <ele>168.8</ele>
        <time>2020-10-24T11:06:53Z</time>
      </trkpt>
      <trkpt lat="44.80092" lon="1.61893">
        <ele>169</ele>
        <time>2020-10-24T11:07:10Z</time>
      </trkpt>
      <trkpt lat="44.80097" lon="1.61897">
        <ele>169.2</ele>
        <time>2020-10-24T11:07:17Z</time>
      </trkpt>
      <trkpt lat="44.80099" lon="1.619">
        <ele>169.4</ele>
        <time>2020-10-24T11:07:20Z</time>
      </trkpt>
      <trkpt lat="44.80104" lon="1.61904">
        <ele>169.8</ele>
        <time>2020-10-24T11:07:25Z</time>
      </trkpt>
      <trkpt lat="44.80108" lon="1.61906">
        <ele>171.6</ele>
        <time>2020-10-24T11:07:28Z</time>
      </trkpt>
      <trkpt lat="44.80124" lon="1.61916">
        <ele>171.8</ele>
        <time>2020-10-24T11:07:43Z</time>
      </trkpt>
      <trkpt lat="44.80124" lon="1.61916">
        <ele>172.2</ele>
        <time>2020-10-24T11:08:01Z</time>
      </trkpt>
      <trkpt lat="44.80124" lon="1.61916">
        <ele>172.4</ele>
        <time>2020-10-24T11:08:18Z</time>
      </trkpt>
      <trkpt lat="44.80124" lon="1.61916">
        <ele>172.6</ele>
        <time>2020-10-24T11:08:19Z</time>
      </trkpt>
      <trkpt lat="44.80124" lon="1.61916">
        <ele>172</ele>
        <time>2020-10-24T11:08:36Z</time>
      </trkpt>
      <trkpt lat="44.80124" lon="1.61916">
        <ele>172.2</ele>
        <time>2020-10-24T11:08:53Z</time>
      </trkpt>
      <trkpt lat="44.80124" lon="1.61916">
        <ele>172.4</ele>
        <time>2020-10-24T11:09:10Z</time>
      </trkpt>
      <trkpt lat="44.80124" lon="1.61916">
        <ele>172.6</ele>
        <time>2020-10-24T11:09:25Z</time>
      </trkpt>
      <trkpt lat="44.80124" lon="1.61916">
        <ele>172.4</ele>
        <time>2020-10-24T11:09:42Z</time>
      </trkpt>
      <trkpt lat="44.80101" lon="1.61968">
        <ele>172.4</ele>
        <time>2020-10-24T11:09:48Z</time>
      </trkpt>
      <trkpt lat="44.80101" lon="1.61966">
        <ele>172.4</ele>
        <time>2020-10-24T11:09:49Z</time>
      </trkpt>
      <trkpt lat="44.80109" lon="1.61957">
        <ele>172.4</ele>
        <time>2020-10-24T11:09:58Z</time>
      </trkpt>
      <trkpt lat="44.8011" lon="1.61953">
        <ele>172.4</ele>
        <time>2020-10-24T11:10:01Z</time>
      </trkpt>
      <trkpt lat="44.80112" lon="1.61952">
        <ele>172.4</ele>
        <time>2020-10-24T11:10:03Z</time>
      </trkpt>
      <trkpt lat="44.80112" lon="1.61954">
        <ele>172</ele>
        <time>2020-10-24T11:10:08Z</time>
      </trkpt>
      <trkpt lat="44.80113" lon="1.61954">
        <ele>172</ele>
        <time>2020-10-24T11:10:10Z</time>
      </trkpt>
      <trkpt lat="44.80113" lon="1.61955">
        <ele>172.2</ele>
        <time>2020-10-24T11:10:13Z</time>
      </trkpt>
      <trkpt lat="44.80112" lon="1.61954">
        <ele>172.6</ele>
        <time>2020-10-24T11:10:19Z</time>
      </trkpt>
      <trkpt lat="44.80119" lon="1.61947">
        <ele>172.8</ele>
        <time>2020-10-24T11:10:23Z</time>
      </trkpt>
      <trkpt lat="44.80118" lon="1.61945">
        <ele>172.6</ele>
        <time>2020-10-24T11:10:29Z</time>
      </trkpt>
      <trkpt lat="44.80118" lon="1.61945">
        <ele>172.8</ele>
        <time>2020-10-24T12:24:24Z</time>
      </trkpt>
      <trkpt lat="44.80118" lon="1.61945">
        <ele>174.4</ele>
        <time>2020-10-24T12:24:27Z</time>
      </trkpt>
      <trkpt lat="44.80118" lon="1.61945">
        <ele>178.2</ele>
        <time>2020-10-24T12:24:28Z</time>
      </trkpt>
      <trkpt lat="44.80118" lon="1.61945">
        <ele>181.6</ele>
        <time>2020-10-24T12:24:29Z</time>
      </trkpt>
      <trkpt lat="44.80118" lon="1.61945">
        <ele>183.4</ele>
        <time>2020-10-24T12:24:30Z</time>
      </trkpt>
      <trkpt lat="44.80142" lon="1.61991">
        <ele>184.6</ele>
        <time>2020-10-24T12:24:33Z</time>
      </trkpt>
      <trkpt lat="44.8015" lon="1.61986">
        <ele>185.2</ele>
        <time>2020-10-24T12:24:42Z</time>
      </trkpt>
      <trkpt lat="44.80151" lon="1.61982">
        <ele>185</ele>
        <time>2020-10-24T12:24:56Z</time>
      </trkpt>
      <trkpt lat="44.80142" lon="1.61971">
        <ele>184.4</ele>
        <time>2020-10-24T12:25:06Z</time>
      </trkpt>
      <trkpt lat="44.8014" lon="1.61964">
        <ele>183.6</ele>
        <time>2020-10-24T12:25:12Z</time>
      </trkpt>
      <trkpt lat="44.80139" lon="1.61959">
        <ele>183.4</ele>
        <time>2020-10-24T12:25:16Z</time>
      </trkpt>
      <trkpt lat="44.80137" lon="1.61953">
        <ele>183.6</ele>
        <time>2020-10-24T12:25:22Z</time>
      </trkpt>
      <trkpt lat="44.80138" lon="1.61952">
        <ele>183.8</ele>
        <time>2020-10-24T12:25:26Z</time>
      </trkpt>
      <trkpt lat="44.80139" lon="1.61954">
        <ele>183.8</ele>
        <time>2020-10-24T12:25:36Z</time>
      </trkpt>
      <trkpt lat="44.80136" lon="1.61953">
        <ele>183.4</ele>
        <time>2020-10-24T12:25:48Z</time>
      </trkpt>
      <trkpt lat="44.8013" lon="1.6195">
        <ele>182.8</ele>
        <time>2020-10-24T12:25:58Z</time>
      </trkpt>
      <trkpt lat="44.80129" lon="1.6195">
        <ele>182.6</ele>
        <time>2020-10-24T12:26:00Z</time>
      </trkpt>
      <trkpt lat="44.80125" lon="1.61944">
        <ele>182.8</ele>
        <time>2020-10-24T12:26:08Z</time>
      </trkpt>
      <trkpt lat="44.80115" lon="1.6193">
        <ele>181.8</ele>
        <time>2020-10-24T12:26:22Z</time>
      </trkpt>
      <trkpt lat="44.80114" lon="1.61929">
        <ele>181.6</ele>
        <time>2020-10-24T12:26:25Z</time>
      </trkpt>
      <trkpt lat="44.80105" lon="1.6192">
        <ele>181.2</ele>
        <time>2020-10-24T12:26:36Z</time>
      </trkpt>
      <trkpt lat="44.8009" lon="1.61909">
        <ele>180.6</ele>
        <time>2020-10-24T12:26:49Z</time>
      </trkpt>
      <trkpt lat="44.8009" lon="1.61909">
        <ele>180.4</ele>
        <time>2020-10-24T12:26:51Z</time>
      </trkpt>
      <trkpt lat="44.80088" lon="1.61907">
        <ele>180.4</ele>
        <time>2020-10-24T12:26:53Z</time>
      </trkpt>
      <trkpt lat="44.80077" lon="1.61894">
        <ele>179.8</ele>
        <time>2020-10-24T12:27:07Z</time>
      </trkpt>
      <trkpt lat="44.80069" lon="1.61886">
        <ele>179.4</ele>
        <time>2020-10-24T12:27:15Z</time>
      </trkpt>
      <trkpt lat="44.80064" lon="1.6188">
        <ele>179.4</ele>
        <time>2020-10-24T12:27:22Z</time>
      </trkpt>
      <trkpt lat="44.80047" lon="1.61867">
        <ele>179.2</ele>
        <time>2020-10-24T12:27:37Z</time>
      </trkpt>
      <trkpt lat="44.80038" lon="1.61859">
        <ele>179</ele>
        <time>2020-10-24T12:27:47Z</time>
      </trkpt>
      <trkpt lat="44.80036" lon="1.61857">
        <ele>179.2</ele>
        <time>2020-10-24T12:27:50Z</time>
      </trkpt>
      <trkpt lat="44.80026" lon="1.6185">
        <ele>179</ele>
        <time>2020-10-24T12:28:03Z</time>
      </trkpt>
      <trkpt lat="44.80014" lon="1.61845">
        <ele>178.6</ele>
        <time>2020-10-24T12:28:15Z</time>
      </trkpt>
      <trkpt lat="44.80013" lon="1.61845">
        <ele>178.4</ele>
        <time>2020-10-24T12:28:16Z</time>
      </trkpt>
      <trkpt lat="44.79997" lon="1.6184">
        <ele>177.4</ele>
        <time>2020-10-24T12:28:28Z</time>
      </trkpt>
      <trkpt lat="44.79987" lon="1.61838">
        <ele>176.4</ele>
        <time>2020-10-24T12:28:37Z</time>
      </trkpt>
      <trkpt lat="44.79982" lon="1.61837">
        <ele>176</ele>
        <time>2020-10-24T12:28:41Z</time>
      </trkpt>
      <trkpt lat="44.79971" lon="1.61833">
        <ele>175.4</ele>
        <time>2020-10-24T12:28:51Z</time>
      </trkpt>
      <trkpt lat="44.7997" lon="1.61832">
        <ele>175.2</ele>
        <time>2020-10-24T12:28:53Z</time>
      </trkpt>
      <trkpt lat="44.79968" lon="1.61833">
        <ele>175.2</ele>
        <time>2020-10-24T12:28:57Z</time>
      </trkpt>
      <trkpt lat="44.79964" lon="1.61833">
        <ele>175.2</ele>
        <time>2020-10-24T12:29:00Z</time>
      </trkpt>
      <trkpt lat="44.79962" lon="1.61832">
        <ele>175.2</ele>
        <time>2020-10-24T12:29:02Z</time>
      </trkpt>
      <trkpt lat="44.79948" lon="1.61829">
        <ele>175.6</ele>
        <time>2020-10-24T12:29:17Z</time>
      </trkpt>
      <trkpt lat="44.79934" lon="1.61826">
        <ele>176.4</ele>
        <time>2020-10-24T12:29:30Z</time>
      </trkpt>
      <trkpt lat="44.79932" lon="1.61827">
        <ele>176.4</ele>
        <time>2020-10-24T12:29:32Z</time>
      </trkpt>
      <trkpt lat="44.79918" lon="1.61813">
        <ele>176.2</ele>
        <time>2020-10-24T12:29:46Z</time>
      </trkpt>
      <trkpt lat="44.79903" lon="1.61807">
        <ele>176.6</ele>
        <time>2020-10-24T12:30:00Z</time>
      </trkpt>
      <trkpt lat="44.79905" lon="1.61796">
        <ele>176.8</ele>
        <time>2020-10-24T12:30:07Z</time>
      </trkpt>
      <trkpt lat="44.79907" lon="1.61791">
        <ele>176.8</ele>
        <time>2020-10-24T12:30:12Z</time>
      </trkpt>
      <trkpt lat="44.79908" lon="1.61789">
        <ele>176.6</ele>
        <time>2020-10-24T12:30:14Z</time>
      </trkpt>
      <trkpt lat="44.79903" lon="1.61781">
        <ele>177.2</ele>
        <time>2020-10-24T12:30:25Z</time>
      </trkpt>
      <trkpt lat="44.79902" lon="1.61781">
        <ele>177.2</ele>
        <time>2020-10-24T12:30:26Z</time>
      </trkpt>
      <trkpt lat="44.79894" lon="1.61776">
        <ele>176.6</ele>
        <time>2020-10-24T12:30:36Z</time>
      </trkpt>
      <trkpt lat="44.79893" lon="1.61775">
        <ele>176.4</ele>
        <time>2020-10-24T12:30:38Z</time>
      </trkpt>
      <trkpt lat="44.79892" lon="1.61775">
        <ele>176.6</ele>
        <time>2020-10-24T12:30:41Z</time>
      </trkpt>
      <trkpt lat="44.79892" lon="1.61773">
        <ele>177.4</ele>
        <time>2020-10-24T12:30:44Z</time>
      </trkpt>
      <trkpt lat="44.79892" lon="1.61774">
        <ele>177.6</ele>
        <time>2020-10-24T12:30:45Z</time>
      </trkpt>
      <trkpt lat="44.79892" lon="1.61777">
        <ele>178.2</ele>
        <time>2020-10-24T12:30:47Z</time>
      </trkpt>
      <trkpt lat="44.79892" lon="1.61778">
        <ele>178.4</ele>
        <time>2020-10-24T12:30:48Z</time>
      </trkpt>
      <trkpt lat="44.79891" lon="1.61779">
        <ele>178.6</ele>
        <time>2020-10-24T12:30:49Z</time>
      </trkpt>
      <trkpt lat="44.79891" lon="1.6178">
        <ele>179.2</ele>
        <time>2020-10-24T12:30:51Z</time>
      </trkpt>
      <trkpt lat="44.79891" lon="1.61781">
        <ele>179.2</ele>
        <time>2020-10-24T12:30:52Z</time>
      </trkpt>
      <trkpt lat="44.79891" lon="1.61781">
        <ele>179.6</ele>
        <time>2020-10-24T12:30:54Z</time>
      </trkpt>
      <trkpt lat="44.79892" lon="1.61781">
        <ele>180.6</ele>
        <time>2020-10-24T12:30:58Z</time>
      </trkpt>
      <trkpt lat="44.79894" lon="1.61778">
        <ele>181.8</ele>
        <time>2020-10-24T12:31:02Z</time>
      </trkpt>
      <trkpt lat="44.79895" lon="1.61777">
        <ele>181.8</ele>
        <time>2020-10-24T12:31:03Z</time>
      </trkpt>
      <trkpt lat="44.79896" lon="1.61775">
        <ele>182.8</ele>
        <time>2020-10-24T12:31:06Z</time>
      </trkpt>
      <trkpt lat="44.79899" lon="1.61774">
        <ele>184</ele>
        <time>2020-10-24T12:31:12Z</time>
      </trkpt>
      <trkpt lat="44.79902" lon="1.61773">
        <ele>185.2</ele>
        <time>2020-10-24T12:31:17Z</time>
      </trkpt>
      <trkpt lat="44.79904" lon="1.6177">
        <ele>186.2</ele>
        <time>2020-10-24T12:31:22Z</time>
      </trkpt>
      <trkpt lat="44.79908" lon="1.61767">
        <ele>187.2</ele>
        <time>2020-10-24T12:31:27Z</time>
      </trkpt>
      <trkpt lat="44.7991" lon="1.61766">
        <ele>187.6</ele>
        <time>2020-10-24T12:31:29Z</time>
      </trkpt>
      <trkpt lat="44.79912" lon="1.61768">
        <ele>188.6</ele>
        <time>2020-10-24T12:31:34Z</time>
      </trkpt>
      <trkpt lat="44.79914" lon="1.6177">
        <ele>189.6</ele>
        <time>2020-10-24T12:31:38Z</time>
      </trkpt>
      <trkpt lat="44.79914" lon="1.61771">
        <ele>190.6</ele>
        <time>2020-10-24T12:31:41Z</time>
      </trkpt>
      <trkpt lat="44.79917" lon="1.61772">
        <ele>191.8</ele>
        <time>2020-10-24T12:31:47Z</time>
      </trkpt>
      <trkpt lat="44.79919" lon="1.61772">
        <ele>193.2</ele>
        <time>2020-10-24T12:31:51Z</time>
      </trkpt>
      <trkpt lat="44.7992" lon="1.61769">
        <ele>194</ele>
        <time>2020-10-24T12:31:55Z</time>
      </trkpt>
      <trkpt lat="44.7992" lon="1.61769">
        <ele>194.4</ele>
        <time>2020-10-24T12:31:56Z</time>
      </trkpt>
      <trkpt lat="44.7992" lon="1.61766">
        <ele>195.2</ele>
        <time>2020-10-24T12:31:59Z</time>
      </trkpt>
      <trkpt lat="44.7992" lon="1.61765">
        <ele>195.4</ele>
        <time>2020-10-24T12:32:00Z</time>
      </trkpt>
      <trkpt lat="44.79919" lon="1.61764">
        <ele>196.6</ele>
        <time>2020-10-24T12:32:04Z</time>
      </trkpt>
      <trkpt lat="44.79918" lon="1.61763">
        <ele>197</ele>
        <time>2020-10-24T12:32:06Z</time>
      </trkpt>
      <trkpt lat="44.79917" lon="1.6176">
        <ele>197.8</ele>
        <time>2020-10-24T12:32:10Z</time>
      </trkpt>
      <trkpt lat="44.79916" lon="1.61758">
        <ele>198.8</ele>
        <time>2020-10-24T12:32:13Z</time>
      </trkpt>
      <trkpt lat="44.79913" lon="1.61757">
        <ele>199.8</ele>
        <time>2020-10-24T12:32:18Z</time>
      </trkpt>
      <trkpt lat="44.79912" lon="1.61757">
        <ele>200</ele>
        <time>2020-10-24T12:32:23Z</time>
      </trkpt>
      <trkpt lat="44.79913" lon="1.61754">
        <ele>200.2</ele>
        <time>2020-10-24T12:32:34Z</time>
      </trkpt>
      <trkpt lat="44.79919" lon="1.61763">
        <ele>200.4</ele>
        <time>2020-10-24T12:32:44Z</time>
      </trkpt>
      <trkpt lat="44.79924" lon="1.6177">
        <ele>200.4</ele>
        <time>2020-10-24T12:32:51Z</time>
      </trkpt>
      <trkpt lat="44.79928" lon="1.61775">
        <ele>201</ele>
        <time>2020-10-24T12:32:57Z</time>
      </trkpt>
      <trkpt lat="44.7993" lon="1.61783">
        <ele>202</ele>
        <time>2020-10-24T12:33:03Z</time>
      </trkpt>
      <trkpt lat="44.79931" lon="1.61785">
        <ele>202.2</ele>
        <time>2020-10-24T12:33:04Z</time>
      </trkpt>
      <trkpt lat="44.79931" lon="1.61785">
        <ele>203.2</ele>
        <time>2020-10-24T12:33:12Z</time>
      </trkpt>
      <trkpt lat="44.79931" lon="1.61785">
        <ele>204.2</ele>
        <time>2020-10-24T12:33:32Z</time>
      </trkpt>
      <trkpt lat="44.79931" lon="1.61785">
        <ele>204</ele>
        <time>2020-10-24T12:33:50Z</time>
      </trkpt>
      <trkpt lat="44.79931" lon="1.61785">
        <ele>204.2</ele>
        <time>2020-10-24T12:33:59Z</time>
      </trkpt>
      <trkpt lat="44.79931" lon="1.61785">
        <ele>204</ele>
        <time>2020-10-24T12:34:17Z</time>
      </trkpt>
      <trkpt lat="44.79931" lon="1.61785">
        <ele>204.2</ele>
        <time>2020-10-24T12:34:35Z</time>
      </trkpt>
      <trkpt lat="44.79931" lon="1.61785">
        <ele>204.2</ele>
        <time>2020-10-24T12:34:37Z</time>
      </trkpt>
      <trkpt lat="44.79931" lon="1.61785">
        <ele>205.2</ele>
        <time>2020-10-24T12:34:53Z</time>
      </trkpt>
      <trkpt lat="44.79931" lon="1.61785">
        <ele>206.4</ele>
        <time>2020-10-24T12:34:57Z</time>
      </trkpt>
      <trkpt lat="44.79931" lon="1.61785">
        <ele>207.4</ele>
        <time>2020-10-24T12:35:01Z</time>
      </trkpt>
      <trkpt lat="44.79971" lon="1.61787">
        <ele>208</ele>
        <time>2020-10-24T12:35:04Z</time>
      </trkpt>
      <trkpt lat="44.79972" lon="1.61786">
        <ele>208.4</ele>
        <time>2020-10-24T12:35:05Z</time>
      </trkpt>
      <trkpt lat="44.79972" lon="1.61786">
        <ele>209.2</ele>
        <time>2020-10-24T12:35:06Z</time>
      </trkpt>
      <trkpt lat="44.79973" lon="1.61785">
        <ele>209.2</ele>
        <time>2020-10-24T12:35:08Z</time>
      </trkpt>
      <trkpt lat="44.79975" lon="1.61786">
        <ele>210.2</ele>
        <time>2020-10-24T12:35:11Z</time>
      </trkpt>
      <trkpt lat="44.79974" lon="1.61786">
        <ele>211</ele>
        <time>2020-10-24T12:35:13Z</time>
      </trkpt>
      <trkpt lat="44.79974" lon="1.61785">
        <ele>211.4</ele>
        <time>2020-10-24T12:35:15Z</time>
      </trkpt>
      <trkpt lat="44.79974" lon="1.61783">
        <ele>211.8</ele>
        <time>2020-10-24T12:35:17Z</time>
      </trkpt>
      <trkpt lat="44.79974" lon="1.6178">
        <ele>212.6</ele>
        <time>2020-10-24T12:35:20Z</time>
      </trkpt>
      <trkpt lat="44.79972" lon="1.61771">
        <ele>212.8</ele>
        <time>2020-10-24T12:35:29Z</time>
      </trkpt>
      <trkpt lat="44.79979" lon="1.6177">
        <ele>212.8</ele>
        <time>2020-10-24T12:35:39Z</time>
      </trkpt>
      <trkpt lat="44.79981" lon="1.61772">
        <ele>212.8</ele>
        <time>2020-10-24T12:35:41Z</time>
      </trkpt>
      <trkpt lat="44.79983" lon="1.61775">
        <ele>213</ele>
        <time>2020-10-24T12:35:43Z</time>
      </trkpt>
      <trkpt lat="44.79989" lon="1.61777">
        <ele>213.2</ele>
        <time>2020-10-24T12:35:49Z</time>
      </trkpt>
      <trkpt lat="44.7999" lon="1.61777">
        <ele>213.2</ele>
        <time>2020-10-24T12:35:50Z</time>
      </trkpt>
      <trkpt lat="44.79994" lon="1.61776">
        <ele>213.2</ele>
        <time>2020-10-24T12:35:53Z</time>
      </trkpt>
      <trkpt lat="44.79998" lon="1.61776">
        <ele>213.4</ele>
        <time>2020-10-24T12:35:57Z</time>
      </trkpt>
      <trkpt lat="44.80002" lon="1.61778">
        <ele>213.2</ele>
        <time>2020-10-24T12:36:01Z</time>
      </trkpt>
      <trkpt lat="44.80008" lon="1.61782">
        <ele>212.8</ele>
        <time>2020-10-24T12:36:06Z</time>
      </trkpt>
      <trkpt lat="44.80017" lon="1.61782">
        <ele>213.2</ele>
        <time>2020-10-24T12:36:14Z</time>
      </trkpt>
      <trkpt lat="44.80034" lon="1.61781">
        <ele>213.2</ele>
        <time>2020-10-24T12:36:29Z</time>
      </trkpt>
      <trkpt lat="44.80037" lon="1.61783">
        <ele>213.8</ele>
        <time>2020-10-24T12:36:33Z</time>
      </trkpt>
      <trkpt lat="44.80044" lon="1.61786">
        <ele>214.6</ele>
        <time>2020-10-24T12:36:40Z</time>
      </trkpt>
      <trkpt lat="44.80045" lon="1.61786">
        <ele>214.8</ele>
        <time>2020-10-24T12:36:41Z</time>
      </trkpt>
      <trkpt lat="44.80052" lon="1.61789">
        <ele>216</ele>
        <time>2020-10-24T12:36:47Z</time>
      </trkpt>
      <trkpt lat="44.80059" lon="1.61791">
        <ele>217.2</ele>
        <time>2020-10-24T12:36:54Z</time>
      </trkpt>
      <trkpt lat="44.80062" lon="1.61793">
        <ele>218.2</ele>
        <time>2020-10-24T12:36:58Z</time>
      </trkpt>
      <trkpt lat="44.8007" lon="1.618">
        <ele>219.4</ele>
        <time>2020-10-24T12:37:08Z</time>
      </trkpt>
      <trkpt lat="44.8007" lon="1.61802">
        <ele>219.6</ele>
        <time>2020-10-24T12:37:09Z</time>
      </trkpt>
      <trkpt lat="44.80076" lon="1.61806">
        <ele>220.6</ele>
        <time>2020-10-24T12:37:15Z</time>
      </trkpt>
      <trkpt lat="44.80081" lon="1.61807">
        <ele>221.4</ele>
        <time>2020-10-24T12:37:20Z</time>
      </trkpt>
      <trkpt lat="44.80084" lon="1.61808">
        <ele>221.8</ele>
        <time>2020-10-24T12:37:23Z</time>
      </trkpt>
      <trkpt lat="44.80085" lon="1.61811">
        <ele>222.2</ele>
        <time>2020-10-24T12:37:27Z</time>
      </trkpt>
      <trkpt lat="44.80084" lon="1.61813">
        <ele>222.4</ele>
        <time>2020-10-24T12:37:29Z</time>
      </trkpt>
      <trkpt lat="44.80085" lon="1.61813">
        <ele>222.6</ele>
        <time>2020-10-24T12:37:30Z</time>
      </trkpt>
      <trkpt lat="44.80085" lon="1.61813">
        <ele>222.8</ele>
        <time>2020-10-24T12:37:31Z</time>
      </trkpt>
      <trkpt lat="44.80084" lon="1.61814">
        <ele>223.4</ele>
        <time>2020-10-24T12:37:34Z</time>
      </trkpt>
      <trkpt lat="44.80083" lon="1.61816">
        <ele>223.8</ele>
        <time>2020-10-24T12:37:40Z</time>
      </trkpt>
      <trkpt lat="44.80086" lon="1.61817">
        <ele>223</ele>
        <time>2020-10-24T12:37:54Z</time>
      </trkpt>
      <trkpt lat="44.80095" lon="1.61818">
        <ele>224</ele>
        <time>2020-10-24T12:38:03Z</time>
      </trkpt>
      <trkpt lat="44.80096" lon="1.61818">
        <ele>224.2</ele>
        <time>2020-10-24T12:38:04Z</time>
      </trkpt>
      <trkpt lat="44.80099" lon="1.61816">
        <ele>224.4</ele>
        <time>2020-10-24T12:38:07Z</time>
      </trkpt>
      <trkpt lat="44.80098" lon="1.61811">
        <ele>224.8</ele>
        <time>2020-10-24T12:38:11Z</time>
      </trkpt>
      <trkpt lat="44.80097" lon="1.6181">
        <ele>224.8</ele>
        <time>2020-10-24T12:38:12Z</time>
      </trkpt>
      <trkpt lat="44.80096" lon="1.61809">
        <ele>224.8</ele>
        <time>2020-10-24T12:38:13Z</time>
      </trkpt>
      <trkpt lat="44.80094" lon="1.61806">
        <ele>225.2</ele>
        <time>2020-10-24T12:38:16Z</time>
      </trkpt>
      <trkpt lat="44.80088" lon="1.61801">
        <ele>226.2</ele>
        <time>2020-10-24T12:38:22Z</time>
      </trkpt>
      <trkpt lat="44.80087" lon="1.61801">
        <ele>226.4</ele>
        <time>2020-10-24T12:38:23Z</time>
      </trkpt>
      <trkpt lat="44.8008" lon="1.61797">
        <ele>227.4</ele>
        <time>2020-10-24T12:38:30Z</time>
      </trkpt>
      <trkpt lat="44.80075" lon="1.61794">
        <ele>228.2</ele>
        <time>2020-10-24T12:38:35Z</time>
      </trkpt>
      <trkpt lat="44.80074" lon="1.61792">
        <ele>228.4</ele>
        <time>2020-10-24T12:38:37Z</time>
      </trkpt>
      <trkpt lat="44.80068" lon="1.61786">
        <ele>229.6</ele>
        <time>2020-10-24T12:38:44Z</time>
      </trkpt>
      <trkpt lat="44.80066" lon="1.61785">
        <ele>229.8</ele>
        <time>2020-10-24T12:38:46Z</time>
      </trkpt>
      <trkpt lat="44.80063" lon="1.61784">
        <ele>230.6</ele>
        <time>2020-10-24T12:38:49Z</time>
      </trkpt>
      <trkpt lat="44.80057" lon="1.6178">
        <ele>231.8</ele>
        <time>2020-10-24T12:38:56Z</time>
      </trkpt>
      <trkpt lat="44.80054" lon="1.61777">
        <ele>232.4</ele>
        <time>2020-10-24T12:38:59Z</time>
      </trkpt>
      <trkpt lat="44.80052" lon="1.61774">
        <ele>232.8</ele>
        <time>2020-10-24T12:39:02Z</time>
      </trkpt>
      <trkpt lat="44.80046" lon="1.61769">
        <ele>234</ele>
        <time>2020-10-24T12:39:09Z</time>
      </trkpt>
      <trkpt lat="44.8004" lon="1.61764">
        <ele>235</ele>
        <time>2020-10-24T12:39:16Z</time>
      </trkpt>
      <trkpt lat="44.8004" lon="1.61763">
        <ele>235.2</ele>
        <time>2020-10-24T12:39:17Z</time>
      </trkpt>
      <trkpt lat="44.80033" lon="1.61752">
        <ele>236.2</ele>
        <time>2020-10-24T12:39:28Z</time>
      </trkpt>
      <trkpt lat="44.80032" lon="1.6175">
        <ele>236.4</ele>
        <time>2020-10-24T12:39:30Z</time>
      </trkpt>
      <trkpt lat="44.80023" lon="1.61734">
        <ele>236.2</ele>
        <time>2020-10-24T12:39:45Z</time>
      </trkpt>
      <trkpt lat="44.80023" lon="1.6173">
        <ele>236.4</ele>
        <time>2020-10-24T12:39:50Z</time>
      </trkpt>
      <trkpt lat="44.8002" lon="1.61728">
        <ele>236.8</ele>
        <time>2020-10-24T12:39:54Z</time>
      </trkpt>
      <trkpt lat="44.80019" lon="1.61727">
        <ele>236.8</ele>
        <time>2020-10-24T12:39:55Z</time>
      </trkpt>
      <trkpt lat="44.80018" lon="1.61726">
        <ele>236.8</ele>
        <time>2020-10-24T12:39:57Z</time>
      </trkpt>
      <trkpt lat="44.80016" lon="1.61725">
        <ele>237.2</ele>
        <time>2020-10-24T12:39:59Z</time>
      </trkpt>
      <trkpt lat="44.80012" lon="1.61721">
        <ele>238</ele>
        <time>2020-10-24T12:40:05Z</time>
      </trkpt>
      <trkpt lat="44.80011" lon="1.61716">
        <ele>238.2</ele>
        <time>2020-10-24T12:40:08Z</time>
      </trkpt>
      <trkpt lat="44.80011" lon="1.61715">
        <ele>238.4</ele>
        <time>2020-10-24T12:40:09Z</time>
      </trkpt>
      <trkpt lat="44.80013" lon="1.6171">
        <ele>239</ele>
        <time>2020-10-24T12:40:14Z</time>
      </trkpt>
      <trkpt lat="44.80014" lon="1.61709">
        <ele>239.2</ele>
        <time>2020-10-24T12:40:16Z</time>
      </trkpt>
      <trkpt lat="44.80014" lon="1.6171">
        <ele>239.4</ele>
        <time>2020-10-24T12:40:18Z</time>
      </trkpt>
      <trkpt lat="44.80022" lon="1.61716">
        <ele>240.4</ele>
        <time>2020-10-24T12:40:27Z</time>
      </trkpt>
      <trkpt lat="44.80024" lon="1.61717">
        <ele>240.8</ele>
        <time>2020-10-24T12:40:30Z</time>
      </trkpt>
      <trkpt lat="44.80027" lon="1.61719">
        <ele>241.2</ele>
        <time>2020-10-24T12:40:33Z</time>
      </trkpt>
      <trkpt lat="44.80029" lon="1.61721">
        <ele>241.6</ele>
        <time>2020-10-24T12:40:35Z</time>
      </trkpt>
      <trkpt lat="44.80033" lon="1.61721">
        <ele>242</ele>
        <time>2020-10-24T12:40:38Z</time>
      </trkpt>
      <trkpt lat="44.80032" lon="1.6172">
        <ele>242.6</ele>
        <time>2020-10-24T12:40:41Z</time>
      </trkpt>
      <trkpt lat="44.8003" lon="1.61715">
        <ele>242.8</ele>
        <time>2020-10-24T12:40:45Z</time>
      </trkpt>
      <trkpt lat="44.80027" lon="1.6171">
        <ele>243</ele>
        <time>2020-10-24T12:40:49Z</time>
      </trkpt>
      <trkpt lat="44.80026" lon="1.61709">
        <ele>243.2</ele>
        <time>2020-10-24T12:40:50Z</time>
      </trkpt>
      <trkpt lat="44.80024" lon="1.61705">
        <ele>243.6</ele>
        <time>2020-10-24T12:40:53Z</time>
      </trkpt>
      <trkpt lat="44.8002" lon="1.61697">
        <ele>244.6</ele>
        <time>2020-10-24T12:40:58Z</time>
      </trkpt>
      <trkpt lat="44.8002" lon="1.61694">
        <ele>245.2</ele>
        <time>2020-10-24T12:41:03Z</time>
      </trkpt>
      <trkpt lat="44.80022" lon="1.61696">
        <ele>245.6</ele>
        <time>2020-10-24T12:41:06Z</time>
      </trkpt>
      <trkpt lat="44.80023" lon="1.61696">
        <ele>245.6</ele>
        <time>2020-10-24T12:41:07Z</time>
      </trkpt>
      <trkpt lat="44.80023" lon="1.61697">
        <ele>245.8</ele>
        <time>2020-10-24T12:41:08Z</time>
      </trkpt>
      <trkpt lat="44.80024" lon="1.617">
        <ele>246.2</ele>
        <time>2020-10-24T12:41:10Z</time>
      </trkpt>
      <trkpt lat="44.80025" lon="1.61701">
        <ele>246.4</ele>
        <time>2020-10-24T12:41:11Z</time>
      </trkpt>
      <trkpt lat="44.80026" lon="1.61702">
        <ele>246.8</ele>
        <time>2020-10-24T12:41:13Z</time>
      </trkpt>
      <trkpt lat="44.80028" lon="1.61706">
        <ele>246.8</ele>
        <time>2020-10-24T12:41:15Z</time>
      </trkpt>
      <trkpt lat="44.80035" lon="1.6171">
        <ele>247.8</ele>
        <time>2020-10-24T12:41:21Z</time>
      </trkpt>
      <trkpt lat="44.8004" lon="1.61714">
        <ele>249</ele>
        <time>2020-10-24T12:41:27Z</time>
      </trkpt>
      <trkpt lat="44.80041" lon="1.61714">
        <ele>249.2</ele>
        <time>2020-10-24T12:41:28Z</time>
      </trkpt>
      <trkpt lat="44.8004" lon="1.61711">
        <ele>249.4</ele>
        <time>2020-10-24T12:41:31Z</time>
      </trkpt>
      <trkpt lat="44.8004" lon="1.6171">
        <ele>249.6</ele>
        <time>2020-10-24T12:41:32Z</time>
      </trkpt>
      <trkpt lat="44.80038" lon="1.61706">
        <ele>249.8</ele>
        <time>2020-10-24T12:41:35Z</time>
      </trkpt>
      <trkpt lat="44.80037" lon="1.61704">
        <ele>250</ele>
        <time>2020-10-24T12:41:37Z</time>
      </trkpt>
      <trkpt lat="44.80035" lon="1.61696">
        <ele>250.6</ele>
        <time>2020-10-24T12:41:42Z</time>
      </trkpt>
      <trkpt lat="44.80034" lon="1.61693">
        <ele>251</ele>
        <time>2020-10-24T12:41:46Z</time>
      </trkpt>
      <trkpt lat="44.80033" lon="1.61693">
        <ele>251.2</ele>
        <time>2020-10-24T12:41:47Z</time>
      </trkpt>
      <trkpt lat="44.80033" lon="1.61692">
        <ele>251.2</ele>
        <time>2020-10-24T12:41:48Z</time>
      </trkpt>
      <trkpt lat="44.80033" lon="1.61691">
        <ele>251.6</ele>
        <time>2020-10-24T12:41:50Z</time>
      </trkpt>
      <trkpt lat="44.80032" lon="1.61688">
        <ele>251.6</ele>
        <time>2020-10-24T12:41:52Z</time>
      </trkpt>
      <trkpt lat="44.80032" lon="1.6169">
        <ele>252.2</ele>
        <time>2020-10-24T12:41:56Z</time>
      </trkpt>
      <trkpt lat="44.80034" lon="1.61693">
        <ele>252.6</ele>
        <time>2020-10-24T12:41:59Z</time>
      </trkpt>
      <trkpt lat="44.80037" lon="1.61696">
        <ele>253.4</ele>
        <time>2020-10-24T12:42:04Z</time>
      </trkpt>
      <trkpt lat="44.80043" lon="1.617">
        <ele>254.6</ele>
        <time>2020-10-24T12:42:12Z</time>
      </trkpt>
      <trkpt lat="44.80044" lon="1.617">
        <ele>254.8</ele>
        <time>2020-10-24T12:42:13Z</time>
      </trkpt>
      <trkpt lat="44.80045" lon="1.61699">
        <ele>255.2</ele>
        <time>2020-10-24T12:42:15Z</time>
      </trkpt>
      <trkpt lat="44.80045" lon="1.61698">
        <ele>255.6</ele>
        <time>2020-10-24T12:42:16Z</time>
      </trkpt>
      <trkpt lat="44.80044" lon="1.61694">
        <ele>256</ele>
        <time>2020-10-24T12:42:21Z</time>
      </trkpt>
      <trkpt lat="44.80045" lon="1.61699">
        <ele>256.4</ele>
        <time>2020-10-24T12:42:30Z</time>
      </trkpt>
      <trkpt lat="44.80042" lon="1.61693">
        <ele>256.2</ele>
        <time>2020-10-24T12:42:39Z</time>
      </trkpt>
      <trkpt lat="44.80034" lon="1.6168">
        <ele>256.4</ele>
        <time>2020-10-24T12:42:53Z</time>
      </trkpt>
      <trkpt lat="44.80033" lon="1.61679">
        <ele>256.4</ele>
        <time>2020-10-24T12:42:55Z</time>
      </trkpt>
      <trkpt lat="44.80032" lon="1.61678">
        <ele>256.4</ele>
        <time>2020-10-24T12:42:58Z</time>
      </trkpt>
      <trkpt lat="44.80032" lon="1.61678">
        <ele>256.6</ele>
        <time>2020-10-24T12:42:59Z</time>
      </trkpt>
      <trkpt lat="44.8003" lon="1.61678">
        <ele>258</ele>
        <time>2020-10-24T12:43:03Z</time>
      </trkpt>
      <trkpt lat="44.80028" lon="1.61679">
        <ele>258.4</ele>
        <time>2020-10-24T12:43:05Z</time>
      </trkpt>
      <trkpt lat="44.80024" lon="1.61679">
        <ele>259</ele>
        <time>2020-10-24T12:43:08Z</time>
      </trkpt>
      <trkpt lat="44.80019" lon="1.61679">
        <ele>260</ele>
        <time>2020-10-24T12:43:14Z</time>
      </trkpt>
      <trkpt lat="44.80016" lon="1.61681">
        <ele>260.6</ele>
        <time>2020-10-24T12:43:17Z</time>
      </trkpt>
      <trkpt lat="44.80014" lon="1.61683">
        <ele>261.4</ele>
        <time>2020-10-24T12:43:21Z</time>
      </trkpt>
      <trkpt lat="44.80013" lon="1.61682">
        <ele>262</ele>
        <time>2020-10-24T12:43:22Z</time>
      </trkpt>
      <trkpt lat="44.80014" lon="1.61681">
        <ele>262</ele>
        <time>2020-10-24T12:43:24Z</time>
      </trkpt>
      <trkpt lat="44.80015" lon="1.61678">
        <ele>262.4</ele>
        <time>2020-10-24T12:43:27Z</time>
      </trkpt>
      <trkpt lat="44.80019" lon="1.61675">
        <ele>263.8</ele>
        <time>2020-10-24T12:43:33Z</time>
      </trkpt>
      <trkpt lat="44.80025" lon="1.61671">
        <ele>264.8</ele>
        <time>2020-10-24T12:43:38Z</time>
      </trkpt>
      <trkpt lat="44.80026" lon="1.6167">
        <ele>264.8</ele>
        <time>2020-10-24T12:43:39Z</time>
      </trkpt>
      <trkpt lat="44.8003" lon="1.61668">
        <ele>265.8</ele>
        <time>2020-10-24T12:43:42Z</time>
      </trkpt>
      <trkpt lat="44.80036" lon="1.61669">
        <ele>267</ele>
        <time>2020-10-24T12:43:49Z</time>
      </trkpt>
      <trkpt lat="44.80039" lon="1.61671">
        <ele>267.2</ele>
        <time>2020-10-24T12:43:52Z</time>
      </trkpt>
      <trkpt lat="44.80042" lon="1.61673">
        <ele>267.4</ele>
        <time>2020-10-24T12:43:54Z</time>
      </trkpt>
      <trkpt lat="44.80047" lon="1.61673">
        <ele>268</ele>
        <time>2020-10-24T12:43:58Z</time>
      </trkpt>
      <trkpt lat="44.80048" lon="1.61672">
        <ele>268.2</ele>
        <time>2020-10-24T12:43:59Z</time>
      </trkpt>
      <trkpt lat="44.80049" lon="1.6167">
        <ele>268.4</ele>
        <time>2020-10-24T12:44:02Z</time>
      </trkpt>
      <trkpt lat="44.8005" lon="1.61669">
        <ele>268.4</ele>
        <time>2020-10-24T12:44:03Z</time>
      </trkpt>
      <trkpt lat="44.8005" lon="1.61666">
        <ele>268.4</ele>
        <time>2020-10-24T12:44:05Z</time>
      </trkpt>
      <trkpt lat="44.80048" lon="1.61664">
        <ele>268.6</ele>
        <time>2020-10-24T12:44:08Z</time>
      </trkpt>
      <trkpt lat="44.80046" lon="1.61661">
        <ele>268.8</ele>
        <time>2020-10-24T12:44:11Z</time>
      </trkpt>
      <trkpt lat="44.80035" lon="1.61661">
        <ele>268.8</ele>
        <time>2020-10-24T12:44:23Z</time>
      </trkpt>
      <trkpt lat="44.80034" lon="1.61661">
        <ele>268.8</ele>
        <time>2020-10-24T12:44:24Z</time>
      </trkpt>
      <trkpt lat="44.80027" lon="1.61662">
        <ele>268.4</ele>
        <time>2020-10-24T12:44:32Z</time>
      </trkpt>
      <trkpt lat="44.80009" lon="1.61663">
        <ele>267.8</ele>
        <time>2020-10-24T12:44:49Z</time>
      </trkpt>
      <trkpt lat="44.79997" lon="1.61664">
        <ele>267.8</ele>
        <time>2020-10-24T12:45:01Z</time>
      </trkpt>
      <trkpt lat="44.79999" lon="1.61659">
        <ele>268</ele>
        <time>2020-10-24T12:45:08Z</time>
      </trkpt>
      <trkpt lat="44.80002" lon="1.61658">
        <ele>268.2</ele>
        <time>2020-10-24T12:45:11Z</time>
      </trkpt>
      <trkpt lat="44.80005" lon="1.61658">
        <ele>268.2</ele>
        <time>2020-10-24T12:45:13Z</time>
      </trkpt>
      <trkpt lat="44.80012" lon="1.61658">
        <ele>268.6</ele>
        <time>2020-10-24T12:45:17Z</time>
      </trkpt>
      <trkpt lat="44.8003" lon="1.61658">
        <ele>269</ele>
        <time>2020-10-24T12:45:32Z</time>
      </trkpt>
      <trkpt lat="44.80031" lon="1.61658">
        <ele>269</ele>
        <time>2020-10-24T12:45:33Z</time>
      </trkpt>
      <trkpt lat="44.80047" lon="1.61657">
        <ele>269.8</ele>
        <time>2020-10-24T12:45:48Z</time>
      </trkpt>
      <trkpt lat="44.80052" lon="1.61656">
        <ele>270</ele>
        <time>2020-10-24T12:45:52Z</time>
      </trkpt>
      <trkpt lat="44.80062" lon="1.61656">
        <ele>270.4</ele>
        <time>2020-10-24T12:46:01Z</time>
      </trkpt>
      <trkpt lat="44.80077" lon="1.61658">
        <ele>271</ele>
        <time>2020-10-24T12:46:15Z</time>
      </trkpt>
      <trkpt lat="44.80085" lon="1.61659">
        <ele>271.2</ele>
        <time>2020-10-24T12:46:22Z</time>
      </trkpt>
      <trkpt lat="44.80093" lon="1.6166">
        <ele>271.6</ele>
        <time>2020-10-24T12:46:30Z</time>
      </trkpt>
      <trkpt lat="44.80096" lon="1.61661">
        <ele>272.2</ele>
        <time>2020-10-24T12:46:32Z</time>
      </trkpt>
      <trkpt lat="44.8011" lon="1.61664">
        <ele>272.6</ele>
        <time>2020-10-24T12:46:45Z</time>
      </trkpt>
      <trkpt lat="44.80122" lon="1.61668">
        <ele>273.2</ele>
        <time>2020-10-24T12:46:56Z</time>
      </trkpt>
      <trkpt lat="44.80126" lon="1.6167">
        <ele>273.2</ele>
        <time>2020-10-24T12:47:00Z</time>
      </trkpt>
      <trkpt lat="44.80142" lon="1.61683">
        <ele>273.6</ele>
        <time>2020-10-24T12:47:16Z</time>
      </trkpt>
      <trkpt lat="44.80153" lon="1.61702">
        <ele>273.6</ele>
        <time>2020-10-24T12:47:32Z</time>
      </trkpt>
      <trkpt lat="44.8016" lon="1.6172">
        <ele>273.8</ele>
        <time>2020-10-24T12:47:45Z</time>
      </trkpt>
      <trkpt lat="44.80165" lon="1.6173">
        <ele>273.6</ele>
        <time>2020-10-24T12:47:53Z</time>
      </trkpt>
      <trkpt lat="44.8017" lon="1.61741">
        <ele>273.8</ele>
        <time>2020-10-24T12:48:02Z</time>
      </trkpt>
      <trkpt lat="44.80175" lon="1.61747">
        <ele>273.6</ele>
        <time>2020-10-24T12:48:08Z</time>
      </trkpt>
      <trkpt lat="44.8018" lon="1.61754">
        <ele>273.8</ele>
        <time>2020-10-24T12:48:14Z</time>
      </trkpt>
      <trkpt lat="44.80188" lon="1.61774">
        <ele>273.6</ele>
        <time>2020-10-24T12:48:29Z</time>
      </trkpt>
      <trkpt lat="44.80194" lon="1.61795">
        <ele>272.8</ele>
        <time>2020-10-24T12:48:44Z</time>
      </trkpt>
      <trkpt lat="44.80201" lon="1.61801">
        <ele>273</ele>
        <time>2020-10-24T12:48:50Z</time>
      </trkpt>
      <trkpt lat="44.80211" lon="1.6181">
        <ele>272.2</ele>
        <time>2020-10-24T12:48:59Z</time>
      </trkpt>
      <trkpt lat="44.80225" lon="1.61823">
        <ele>271</ele>
        <time>2020-10-24T12:49:12Z</time>
      </trkpt>
      <trkpt lat="44.80227" lon="1.61826">
        <ele>270.8</ele>
        <time>2020-10-24T12:49:15Z</time>
      </trkpt>
      <trkpt lat="44.80241" lon="1.61841">
        <ele>270</ele>
        <time>2020-10-24T12:49:29Z</time>
      </trkpt>
      <trkpt lat="44.80243" lon="1.61847">
        <ele>270.2</ele>
        <time>2020-10-24T12:49:33Z</time>
      </trkpt>
      <trkpt lat="44.80247" lon="1.61867">
        <ele>270.2</ele>
        <time>2020-10-24T12:49:47Z</time>
      </trkpt>
      <trkpt lat="44.80248" lon="1.61875">
        <ele>270.2</ele>
        <time>2020-10-24T12:49:52Z</time>
      </trkpt>
      <trkpt lat="44.8025" lon="1.61897">
        <ele>269.8</ele>
        <time>2020-10-24T12:50:06Z</time>
      </trkpt>
      <trkpt lat="44.80253" lon="1.61923">
        <ele>270.2</ele>
        <time>2020-10-24T12:50:23Z</time>
      </trkpt>
      <trkpt lat="44.80253" lon="1.61924">
        <ele>270.4</ele>
        <time>2020-10-24T12:50:24Z</time>
      </trkpt>
      <trkpt lat="44.80251" lon="1.61927">
        <ele>270.6</ele>
        <time>2020-10-24T12:50:28Z</time>
      </trkpt>
      <trkpt lat="44.80251" lon="1.61929">
        <ele>270.6</ele>
        <time>2020-10-24T12:50:32Z</time>
      </trkpt>
      <trkpt lat="44.80255" lon="1.61946">
        <ele>270.8</ele>
        <time>2020-10-24T12:50:43Z</time>
      </trkpt>
      <trkpt lat="44.80257" lon="1.61953">
        <ele>271.2</ele>
        <time>2020-10-24T12:50:48Z</time>
      </trkpt>
      <trkpt lat="44.80258" lon="1.61963">
        <ele>271</ele>
        <time>2020-10-24T12:50:56Z</time>
      </trkpt>
      <trkpt lat="44.80258" lon="1.61963">
        <ele>271</ele>
        <time>2020-10-24T12:50:57Z</time>
      </trkpt>
      <trkpt lat="44.80258" lon="1.61964">
        <ele>271</ele>
        <time>2020-10-24T12:50:58Z</time>
      </trkpt>
      <trkpt lat="44.80258" lon="1.61965">
        <ele>271</ele>
        <time>2020-10-24T12:51:07Z</time>
      </trkpt>
      <trkpt lat="44.80264" lon="1.61971">
        <ele>271.4</ele>
        <time>2020-10-24T12:51:14Z</time>
      </trkpt>
      <trkpt lat="44.80271" lon="1.61975">
        <ele>270.6</ele>
        <time>2020-10-24T12:51:21Z</time>
      </trkpt>
      <trkpt lat="44.80279" lon="1.6198">
        <ele>271.2</ele>
        <time>2020-10-24T12:51:30Z</time>
      </trkpt>
      <trkpt lat="44.8028" lon="1.6198">
        <ele>271.4</ele>
        <time>2020-10-24T12:51:33Z</time>
      </trkpt>
      <trkpt lat="44.80282" lon="1.61981">
        <ele>271.2</ele>
        <time>2020-10-24T12:51:41Z</time>
      </trkpt>
      <trkpt lat="44.8029" lon="1.61985">
        <ele>271.6</ele>
        <time>2020-10-24T12:51:52Z</time>
      </trkpt>
      <trkpt lat="44.80293" lon="1.61987">
        <ele>272.2</ele>
        <time>2020-10-24T12:51:57Z</time>
      </trkpt>
      <trkpt lat="44.803" lon="1.61991">
        <ele>273</ele>
        <time>2020-10-24T12:52:05Z</time>
      </trkpt>
      <trkpt lat="44.80301" lon="1.61992">
        <ele>273.2</ele>
        <time>2020-10-24T12:52:06Z</time>
      </trkpt>
      <trkpt lat="44.8031" lon="1.62001">
        <ele>274</ele>
        <time>2020-10-24T12:52:18Z</time>
      </trkpt>
      <trkpt lat="44.80312" lon="1.62003">
        <ele>274.2</ele>
        <time>2020-10-24T12:52:20Z</time>
      </trkpt>
      <trkpt lat="44.80322" lon="1.62012">
        <ele>274.4</ele>
        <time>2020-10-24T12:52:32Z</time>
      </trkpt>
      <trkpt lat="44.80328" lon="1.62017">
        <ele>274.6</ele>
        <time>2020-10-24T12:52:38Z</time>
      </trkpt>
      <trkpt lat="44.80334" lon="1.62022">
        <ele>275.4</ele>
        <time>2020-10-24T12:52:45Z</time>
      </trkpt>
      <trkpt lat="44.80345" lon="1.62035">
        <ele>275.4</ele>
        <time>2020-10-24T12:52:58Z</time>
      </trkpt>
      <trkpt lat="44.80348" lon="1.6205">
        <ele>275</ele>
        <time>2020-10-24T12:53:07Z</time>
      </trkpt>
      <trkpt lat="44.80357" lon="1.62063">
        <ele>275.2</ele>
        <time>2020-10-24T12:53:18Z</time>
      </trkpt>
      <trkpt lat="44.80368" lon="1.62079">
        <ele>275.2</ele>
        <time>2020-10-24T12:53:33Z</time>
      </trkpt>
      <trkpt lat="44.80373" lon="1.62091">
        <ele>275.4</ele>
        <time>2020-10-24T12:53:44Z</time>
      </trkpt>
      <trkpt lat="44.80373" lon="1.62092">
        <ele>275.4</ele>
        <time>2020-10-24T12:53:46Z</time>
      </trkpt>
      <trkpt lat="44.80375" lon="1.62096">
        <ele>275.4</ele>
        <time>2020-10-24T12:53:50Z</time>
      </trkpt>
      <trkpt lat="44.80376" lon="1.62099">
        <ele>275.2</ele>
        <time>2020-10-24T12:53:52Z</time>
      </trkpt>
      <trkpt lat="44.80383" lon="1.62121">
        <ele>275.2</ele>
        <time>2020-10-24T12:54:08Z</time>
      </trkpt>
      <trkpt lat="44.80392" lon="1.62136">
        <ele>274.8</ele>
        <time>2020-10-24T12:54:21Z</time>
      </trkpt>
      <trkpt lat="44.80392" lon="1.62146">
        <ele>274.6</ele>
        <time>2020-10-24T12:54:31Z</time>
      </trkpt>
      <trkpt lat="44.80392" lon="1.62146">
        <ele>274.6</ele>
        <time>2020-10-24T12:54:34Z</time>
      </trkpt>
      <trkpt lat="44.80395" lon="1.62149">
        <ele>274.6</ele>
        <time>2020-10-24T12:54:38Z</time>
      </trkpt>
      <trkpt lat="44.80401" lon="1.62155">
        <ele>274.2</ele>
        <time>2020-10-24T12:54:45Z</time>
      </trkpt>
      <trkpt lat="44.80405" lon="1.62161">
        <ele>274.6</ele>
        <time>2020-10-24T12:54:50Z</time>
      </trkpt>
      <trkpt lat="44.80408" lon="1.62167">
        <ele>274.8</ele>
        <time>2020-10-24T12:54:57Z</time>
      </trkpt>
      <trkpt lat="44.8041" lon="1.62169">
        <ele>274.8</ele>
        <time>2020-10-24T12:55:00Z</time>
      </trkpt>
      <trkpt lat="44.80418" lon="1.62182">
        <ele>274.2</ele>
        <time>2020-10-24T12:55:11Z</time>
      </trkpt>
      <trkpt lat="44.80428" lon="1.62205">
        <ele>273.4</ele>
        <time>2020-10-24T12:55:27Z</time>
      </trkpt>
      <trkpt lat="44.80429" lon="1.62207">
        <ele>273.4</ele>
        <time>2020-10-24T12:55:29Z</time>
      </trkpt>
      <trkpt lat="44.80431" lon="1.62211">
        <ele>273.2</ele>
        <time>2020-10-24T12:55:32Z</time>
      </trkpt>
      <trkpt lat="44.80438" lon="1.62226">
        <ele>272.6</ele>
        <time>2020-10-24T12:55:43Z</time>
      </trkpt>
      <trkpt lat="44.80446" lon="1.62244">
        <ele>272.4</ele>
        <time>2020-10-24T12:55:57Z</time>
      </trkpt>
      <trkpt lat="44.80448" lon="1.6225">
        <ele>272.2</ele>
        <time>2020-10-24T12:56:01Z</time>
      </trkpt>
      <trkpt lat="44.80453" lon="1.62263">
        <ele>271.8</ele>
        <time>2020-10-24T12:56:11Z</time>
      </trkpt>
      <trkpt lat="44.80458" lon="1.62285">
        <ele>271.6</ele>
        <time>2020-10-24T12:56:25Z</time>
      </trkpt>
      <trkpt lat="44.80464" lon="1.62309">
        <ele>271.8</ele>
        <time>2020-10-24T12:56:40Z</time>
      </trkpt>
      <trkpt lat="44.80464" lon="1.6231">
        <ele>271.6</ele>
        <time>2020-10-24T12:56:41Z</time>
      </trkpt>
      <trkpt lat="44.80468" lon="1.62329">
        <ele>271.2</ele>
        <time>2020-10-24T12:56:54Z</time>
      </trkpt>
      <trkpt lat="44.80473" lon="1.62354">
        <ele>271.4</ele>
        <time>2020-10-24T12:57:10Z</time>
      </trkpt>
      <trkpt lat="44.80473" lon="1.62355">
        <ele>271.4</ele>
        <time>2020-10-24T12:57:11Z</time>
      </trkpt>
      <trkpt lat="44.80476" lon="1.62381">
        <ele>270.6</ele>
        <time>2020-10-24T12:57:28Z</time>
      </trkpt>
      <trkpt lat="44.80481" lon="1.62404">
        <ele>270.6</ele>
        <time>2020-10-24T12:57:41Z</time>
      </trkpt>
      <trkpt lat="44.80484" lon="1.62418">
        <ele>270.2</ele>
        <time>2020-10-24T12:57:50Z</time>
      </trkpt>
      <trkpt lat="44.80487" lon="1.62433">
        <ele>270</ele>
        <time>2020-10-24T12:58:00Z</time>
      </trkpt>
      <trkpt lat="44.80488" lon="1.62445">
        <ele>269.6</ele>
        <time>2020-10-24T12:58:08Z</time>
      </trkpt>
      <trkpt lat="44.8049" lon="1.62463">
        <ele>269.8</ele>
        <time>2020-10-24T12:58:19Z</time>
      </trkpt>
      <trkpt lat="44.80491" lon="1.62477">
        <ele>269.2</ele>
        <time>2020-10-24T12:58:27Z</time>
      </trkpt>
      <trkpt lat="44.80491" lon="1.62478">
        <ele>269</ele>
        <time>2020-10-24T12:58:28Z</time>
      </trkpt>
      <trkpt lat="44.80491" lon="1.6249">
        <ele>269</ele>
        <time>2020-10-24T12:58:36Z</time>
      </trkpt>
      <trkpt lat="44.80492" lon="1.62505">
        <ele>268.6</ele>
        <time>2020-10-24T12:58:46Z</time>
      </trkpt>
      <trkpt lat="44.80492" lon="1.62506">
        <ele>268.6</ele>
        <time>2020-10-24T12:58:47Z</time>
      </trkpt>
      <trkpt lat="44.80492" lon="1.62508">
        <ele>268.6</ele>
        <time>2020-10-24T12:58:51Z</time>
      </trkpt>
      <trkpt lat="44.80492" lon="1.62509">
        <ele>268.6</ele>
        <time>2020-10-24T12:58:54Z</time>
      </trkpt>
      <trkpt lat="44.80493" lon="1.62509">
        <ele>268.4</ele>
        <time>2020-10-24T12:58:55Z</time>
      </trkpt>
      <trkpt lat="44.80494" lon="1.62509">
        <ele>268.4</ele>
        <time>2020-10-24T12:59:02Z</time>
      </trkpt>
      <trkpt lat="44.80493" lon="1.62509">
        <ele>268.4</ele>
        <time>2020-10-24T12:59:06Z</time>
      </trkpt>
      <trkpt lat="44.80493" lon="1.62509">
        <ele>268.4</ele>
        <time>2020-10-24T12:59:15Z</time>
      </trkpt>
      <trkpt lat="44.80493" lon="1.62509">
        <ele>268.4</ele>
        <time>2020-10-24T12:59:28Z</time>
      </trkpt>
      <trkpt lat="44.80493" lon="1.62509">
        <ele>268</ele>
        <time>2020-10-24T12:59:31Z</time>
      </trkpt>
      <trkpt lat="44.80493" lon="1.62509">
        <ele>269</ele>
        <time>2020-10-24T12:59:40Z</time>
      </trkpt>
      <trkpt lat="44.80493" lon="1.62509">
        <ele>268.8</ele>
        <time>2020-10-24T12:59:43Z</time>
      </trkpt>
    </trkseg>
  </trk>
</gpx>